NOAA Web Site Link Tides and Currents Home Page Transparent placeholder image

PORTS® Data Listing: 8452660 Newport, RI

CO-OPS RAW PORTS DATA

************************      PRELIMINARY DATA      ************************** 

     THIS RAW DATA HAS NOT BEEN SUBJECT TO THE NATIONAL OCEAN SERVICE'S        
     QUALITY CONTROL OR QUALITY ASSURANCE PROCEDURES AND DOES NOT MEET         
     THE CRITERIA AND STANDARDS OF OFFICIAL NATIONAL OCEAN SERVICE             
     DATA.  IT IS RELEASED FOR LIMITED PUBLIC USE AS PRELIMINARY DATA TO       
     BE USED ONLY WITH APPROPRIATE CAUTION.                                    

************************      PRELIMINARY DATA      ************************** 


       CD   -   Calendar date
       T    -   Time
       TZ   -   Timezone
       PW   -   Predicted water level (feet above MLLW)
       OW   -   Observed water level (feet above MLLW)
       WS   -   Wind speed (knots)
       WD   -   Wind direction (degrees true)
       WG   -   Wind gust (knots)
       AT   -   Air temperature (degrees farenheit)
       WT   -   Water temperature (degrees farenheit)
       AP   -   Air pressure (millibars)
       SA   -   Salinty (PSU - Practical Salinity Units)
       SG   -   Specific gravity
       RH   -   Relative humidity
       AG   -   Air gap (feet)
       VI   -   Visibility (nautical miles)

       ** NOTE **
       A variable that has its data fields filled with "9"s, indicates that
       data was not collected for that sample period.
       **********


STATION NAME: Newport (8452660)
****************************************************************************************************
    CD       T    TZ    PW     OW    WS   WD   WG    AT    WT    AP    SA    SG     RH    AG   VI
****************************************************************************************************
2019/08/14 19:30 EDT    3.79   4.28 -999 -999 -999  74.1  64.9 1012.0 27.8  1.021 -99.9 -99.99 -9.99
2019/08/14 19:36 EDT    3.83   4.25    7   18   11  73.8  64.9 1012.0 27.8  1.021 -99.9 -99.99 -9.99
2019/08/14 19:42 EDT    3.87   4.31    6   23    8  73.6  64.9 1012.0 27.9  1.021 -99.9 -99.99 -9.99
2019/08/14 19:48 EDT    3.90   4.30 -999 -999 -999  73.4  64.9 1012.1 27.8  1.021 -99.9 -99.99 -9.99
2019/08/14 19:54 EDT    3.93   4.34    4   47    6  73.4  64.9 1012.2 27.7  1.021 -99.9 -99.99 -9.99
2019/08/14 20:00 EDT    3.95   4.43    5   27    6  73.2  64.9 1012.2 27.8  1.021 -99.9 -99.99 -9.99
2019/08/14 20:06 EDT    3.96   4.42 -999 -999 -999  73.0  64.6 1012.3 27.8  1.021 -99.9 -99.99 -9.99
2019/08/14 20:12 EDT    3.97   4.37 -999 -999 -999  72.9  64.8 1012.4 27.8  1.021 -99.9 -99.99 -9.99
2019/08/14 20:18 EDT    3.97   4.50    6   40    9  72.7  64.2 1012.4 27.9  1.021 -99.9 -99.99 -9.99
2019/08/14 20:24 EDT    3.97   4.50    5   30    9  72.5  64.0 1012.5 27.8  1.021 -99.9 -99.99 -9.99
2019/08/14 20:30 EDT    3.96   4.44    6   33    9  72.3  63.1 1012.6 28.0  1.021 -99.9 -99.99 -9.99
2019/08/14 20:36 EDT    3.94   4.47    6   29    8  72.1  63.3 1012.7 27.9  1.021 -99.9 -99.99 -9.99
2019/08/14 20:42 EDT    3.92   4.46    5   22    8  72.0  63.5 1012.9 28.0  1.021 -99.9 -99.99 -9.99
2019/08/14 20:48 EDT    3.89   4.43    6   30    8  71.8  63.5 1012.8 27.9  1.021 -99.9 -99.99 -9.99
2019/08/14 20:54 EDT    3.85   4.45    4   43    8  71.4  63.5 1012.9 27.8  1.021 -99.9 -99.99 -9.99
2019/08/14 21:00 EDT    3.81   4.37    4   32    6  71.2  63.1 1012.9 28.0  1.021 -99.9 -99.99 -9.99
2019/08/14 21:06 EDT    3.76   4.31    4   38    5  71.2  62.6 1013.0 28.0  1.021 -99.9 -99.99 -9.99
2019/08/14 21:12 EDT    3.71   4.27    4   58    6  70.9  64.0 1012.9 27.8  1.021 -99.9 -99.99 -9.99
2019/08/14 21:18 EDT    3.65   4.24    4   58    6  70.7  63.3 1013.0 28.0  1.021 -99.9 -99.99 -9.99
2019/08/14 21:24 EDT    3.59   4.22    4   48    6  70.5  63.7 1013.2 28.0  1.021 -99.9 -99.99 -9.99
2019/08/14 21:30 EDT    3.51   4.13    4   30    5  70.3  63.9 1013.4 27.8  1.021 -99.9 -99.99 -9.99
2019/08/14 21:36 EDT    3.44   4.06    4   39    5  70.2  64.2 1013.4 27.7  1.021 -99.9 -99.99 -9.99
2019/08/14 21:42 EDT    3.36   4.00    3   46    5  70.0  64.8 1013.5 27.8  1.021 -99.9 -99.99 -9.99
2019/08/14 21:48 EDT    3.27   3.91    4   53    6  70.0  65.1 1013.4 27.7  1.020 -99.9 -99.99 -9.99
2019/08/14 21:54 EDT    3.18   3.85    3   50    6  69.8  65.1 1013.6 27.7  1.021 -99.9 -99.99 -9.99
2019/08/14 22:00 EDT    3.09   3.73 -999 -999 -999  69.6  64.9 1013.7 27.6  1.020 -99.9 -99.99 -9.99
2019/08/14 22:06 EDT    2.99   3.64    4   58    5  69.4  64.8 1013.6 27.6  1.020 -99.9 -99.99 -9.99
2019/08/14 22:12 EDT    2.89   3.55    2   72    4  69.4  64.9 1013.8 27.6  1.020 -99.9 -99.99 -9.99
2019/08/14 22:18 EDT    2.79   3.52    4   57    6  69.3  65.1 1013.8 27.6  1.020 -99.9 -99.99 -9.99
2019/08/14 22:24 EDT    2.68   3.37    4   66    6  68.9  65.1 1013.7 27.6  1.020 -99.9 -99.99 -9.99
2019/08/14 22:30 EDT    2.57   3.25    4   61    5  68.7  65.3 1013.7 27.6  1.020 -99.9 -99.99 -9.99
2019/08/14 22:36 EDT    2.46   3.23    3   90    5  68.7  65.3 1013.7 27.3  1.020 -99.9 -99.99 -9.99
2019/08/14 22:42 EDT    2.35   3.07    3   82    5  68.5  65.1 1013.6 27.3  1.020 -99.9 -99.99 -9.99
2019/08/14 22:48 EDT    2.24   2.93    4   71    5  68.2  65.1 1013.7 27.5  1.020 -99.9 -99.99 -9.99
2019/08/14 22:54 EDT    2.13   2.82    4   84    6  68.0  65.1 1013.7 27.5  1.020 -99.9 -99.99 -9.99
2019/08/14 23:00 EDT    2.02   2.70    5  105    6  67.6  65.5 1013.7 27.4  1.020 -99.9 -99.99 -9.99
2019/08/14 23:06 EDT    1.92   2.63    3  125    6  67.6  65.5 1013.8 27.4  1.020 -99.9 -99.99 -9.99
2019/08/14 23:12 EDT    1.81   2.47    2  104    7  67.5  65.3 1013.9 27.5  1.020 -99.9 -99.99 -9.99
2019/08/14 23:18 EDT    1.70   2.40    3   83    7  67.5  65.5 1014.0 27.4  1.020 -99.9 -99.99 -9.99
2019/08/14 23:24 EDT    1.60   2.39    3   66    4  67.3  65.5 1014.1 27.4  1.020 -99.9 -99.99 -9.99
2019/08/14 23:30 EDT    1.50   2.20    3   72    4  67.3  65.5 1014.1 27.3  1.020 -99.9 -99.99 -9.99
2019/08/14 23:36 EDT    1.41   2.05    1   73    4  67.3  65.5 1014.2 27.3  1.020 -99.9 -99.99 -9.99
2019/08/14 23:42 EDT    1.31   2.03    2   79    4  67.3  65.3 1014.2 27.3  1.020 -99.9 -99.99 -9.99
2019/08/14 23:48 EDT    1.22   1.87    4   74    5  67.3  64.9 1014.1 27.3  1.020 -99.9 -99.99 -9.99
2019/08/14 23:54 EDT    1.14   1.77    4  102    5  67.3  64.9 1014.1 27.4  1.020 -99.9 -99.99 -9.99
2019/08/15 00:00 EDT    1.06   1.76    3  117    5  67.1  64.9 1014.2 27.4  1.020 -99.9 -99.99 -9.99
2019/08/15 00:06 EDT    0.98   1.59    3   75    3  67.1  65.1 1014.2 27.3  1.020 -99.9 -99.99 -9.99
2019/08/15 00:12 EDT    0.91   1.53 -999 -999 -999  67.1  64.8 1014.1 27.4  1.020 -99.9 -99.99 -9.99
2019/08/15 00:18 EDT    0.85   1.48    2   50    4  67.1  64.9 1014.1 27.1  1.020 -99.9 -99.99 -9.99
2019/08/15 00:24 EDT    0.78   1.32    1   15    2  67.3  64.8 1014.1 27.2  1.020 -99.9 -99.99 -9.99
2019/08/15 00:30 EDT    0.73   1.33    0   34    2  67.3  64.8 1014.0 27.3  1.020 -99.9 -99.99 -9.99
2019/08/15 00:36 EDT    0.68   1.24    1   43    2  67.3  64.8 1014.1 27.1  1.020 -99.9 -99.99 -9.99
2019/08/15 00:42 EDT    0.63   1.14    1   43    2  67.3  64.8 1014.2 27.3  1.020 -99.9 -99.99 -9.99
2019/08/15 00:48 EDT    0.59   1.15    3   45    3  67.3  64.6 1014.2 27.2  1.020 -99.9 -99.99 -9.99
2019/08/15 00:54 EDT    0.55   1.06    1   80    3  67.3  64.6 1014.2 27.0  1.020 -99.9 -99.99 -9.99
2019/08/15 01:00 EDT    0.51   1.03    1   82    2  67.3  64.6 1014.2 27.2  1.020 -99.9 -99.99 -9.99
2019/08/15 01:06 EDT    0.48   1.05 -999 -999 -999  67.5  64.6 1014.2 27.3  1.020 -99.9 -99.99 -9.99
2019/08/15 01:12 EDT    0.46   0.93    1   68    3  67.3  64.6 1014.2 27.2  1.020 -99.9 -99.99 -9.99
2019/08/15 01:18 EDT    0.43   0.94    3  113    4  67.5  64.6 1014.1 27.3  1.020 -99.9 -99.99 -9.99
2019/08/15 01:24 EDT    0.42   0.97    2   47    4  67.5  64.6 1013.9 27.3  1.020 -99.9 -99.99 -9.99
2019/08/15 01:30 EDT    0.40   0.91 -999 -999 -999  67.5  64.6 1014.1 27.3  1.020 -99.9 -99.99 -9.99
2019/08/15 01:36 EDT    0.39   0.91 -999 -999 -999  67.5  64.4 1014.1 27.4  1.020 -99.9 -99.99 -9.99
2019/08/15 01:42 EDT    0.38   0.85 -999 -999 -999  67.5  64.4 1014.3 27.4  1.020 -99.9 -99.99 -9.99
2019/08/15 01:48 EDT    0.37   0.94 -999 -999 -999  67.6  64.6 1014.3 27.4  1.020 -99.9 -99.99 -9.99
2019/08/15 01:54 EDT    0.37   0.89 -999 -999 -999  67.6  64.4 1014.3 27.4  1.020 -99.9 -99.99 -9.99
2019/08/15 02:00 EDT    0.37   0.91    3   33    4  67.5  64.0 1014.3 27.4  1.020 -99.9 -99.99 -9.99
2019/08/15 02:06 EDT    0.37   0.92    2   42    4  67.5  64.4 1014.3 27.4  1.020 -99.9 -99.99 -9.99
2019/08/15 02:12 EDT    0.37   0.90    2   57    3  67.3  64.2 1014.3 27.4  1.020 -99.9 -99.99 -9.99
2019/08/15 02:18 EDT    0.38   0.92    1   63    3  67.3  64.0 1014.3 27.3  1.020 -99.9 -99.99 -9.99
2019/08/15 02:24 EDT    0.38   0.91    1   47    2  67.3  64.0 1014.3 27.3  1.020 -99.9 -99.99 -9.99
2019/08/15 02:30 EDT    0.39   0.91    1   58    2  67.3  64.0 1014.4 27.3  1.020 -99.9 -99.99 -9.99
2019/08/15 02:36 EDT    0.41   0.97    1   55    2  67.3  64.0 1014.4 27.3  1.020 -99.9 -99.99 -9.99
2019/08/15 02:42 EDT    0.42   0.97    2   21    2  67.1  63.9 1014.5 27.3  1.020 -99.9 -99.99 -9.99
2019/08/15 02:48 EDT    0.43   1.03 -999 -999 -999  67.1  63.9 1014.7 27.3  1.020 -99.9 -99.99 -9.99
2019/08/15 02:54 EDT    0.45   1.06    1   30    2  67.3  63.9 1014.9 27.3  1.020 -99.9 -99.99 -9.99
2019/08/15 03:00 EDT    0.47   1.04    2   32    3  67.3  63.9 1014.7 27.1  1.020 -99.9 -99.99 -9.99
2019/08/15 03:06 EDT    0.49   0.99    2   25    3  67.3  63.9 1014.7 27.1  1.020 -99.9 -99.99 -9.99
2019/08/15 03:12 EDT    0.52   1.08    2   32    3  67.3  63.9 1014.7 27.1  1.020 -99.9 -99.99 -9.99
2019/08/15 03:18 EDT    0.54   1.02 -999 -999 -999  67.3  64.0 1014.7 27.0  1.020 -99.9 -99.99 -9.99
2019/08/15 03:24 EDT    0.57   1.06 -999 -999 -999  67.3  64.0 1014.6 27.0  1.020 -99.9 -99.99 -9.99
2019/08/15 03:30 EDT    0.60   1.15 -999 -999 -999  67.3  64.0 1014.6 27.0  1.020 -99.9 -99.99 -9.99
2019/08/15 03:36 EDT    0.63   1.12    2   10    2  67.1  63.9 1014.6 27.2  1.020 -99.9 -99.99 -9.99
2019/08/15 03:42 EDT    0.67   1.22    1   17    1  67.1  64.0 1014.7 27.0  1.020 -99.9 -99.99 -9.99
2019/08/15 03:48 EDT    0.70   1.26    1   41    1  67.1  63.9 1014.7 27.1  1.020 -99.9 -99.99 -9.99
2019/08/15 03:54 EDT    0.74   1.28    1    9    2  67.1  64.0 1014.8 27.0  1.020 -99.9 -99.99 -9.99
2019/08/15 04:00 EDT    0.78   1.36 -999 -999 -999  67.1  64.0 1014.8 27.1  1.020 -99.9 -99.99 -9.99
2019/08/15 04:06 EDT    0.83   1.40    1    4    2  67.1  64.0 1015.0 26.8  1.020 -99.9 -99.99 -9.99
2019/08/15 04:12 EDT    0.87   1.48    1   19    2  67.3  64.2 1015.0 26.7  1.020 -99.9 -99.99 -9.99
2019/08/15 04:18 EDT    0.92   1.49    3   37    4  67.5  64.2 1014.8 27.0  1.020 -99.9 -99.99 -9.99
2019/08/15 04:24 EDT    0.98   1.55    3   30    5  67.6  64.2 1014.9 27.1  1.020 -99.9 -99.99 -9.99
2019/08/15 04:30 EDT    1.03   1.60    3   24    5  67.8  64.0 1014.9 27.1  1.020 -99.9 -99.99 -9.99
2019/08/15 04:36 EDT    1.09   1.65 -999 -999 -999  67.8  64.2 1014.9 27.0  1.020 -99.9 -99.99 -9.99
2019/08/15 04:42 EDT    1.15   1.76    4   15    7  67.8  64.2 1014.9 26.9  1.020 -99.9 -99.99 -9.99
2019/08/15 04:48 EDT    1.21   1.77 -999 -999 -999  67.5  64.2 1014.9 27.0  1.020 -99.9 -99.99 -9.99
2019/08/15 04:54 EDT    1.27   1.87    5   28    7  67.5  64.2 1014.9 27.0  1.020 -99.9 -99.99 -9.99
2019/08/15 05:00 EDT    1.34   1.97    4   32    6  67.3  64.4 1014.9 26.9  1.020 -99.9 -99.99 -9.99
2019/08/15 05:06 EDT    1.41   1.97    5   26    7  67.1  64.2 1014.8 26.9  1.020 -99.9 -99.99 -9.99
2019/08/15 05:12 EDT    1.48   2.02    6   24    8  67.1  64.4 1014.8 26.9  1.020 -99.9 -99.99 -9.99
2019/08/15 05:18 EDT    1.56   2.18    5   30    8  66.9  64.4 1014.9 26.9  1.020 -99.9 -99.99 -9.99
2019/08/15 05:24 EDT    1.64   2.23    5   30    7  66.9  64.4 1015.0 26.8  1.020 -99.9 -99.99 -9.99
2019/08/15 05:30 EDT    1.71   2.31 -999 -999 -999  66.7  64.2 1015.1 27.0  1.020 -99.9 -99.99 -9.99
2019/08/15 05:36 EDT    1.80   2.44    4   34    6  66.6  64.2 1015.2 26.9  1.020 -99.9 -99.99 -9.99
2019/08/15 05:42 EDT    1.88   2.45    4   36    6  66.6  64.2 1015.3 27.0  1.020 -99.9 -99.99 -9.99
2019/08/15 05:48 EDT    1.96   2.58    3   40    5  66.4  64.4 1015.3 26.9  1.020 -99.9 -99.99 -9.99
2019/08/15 05:54 EDT    2.04   2.67    4   33    5  66.4  64.2 1015.2 27.0  1.020 -99.9 -99.99 -9.99
2019/08/15 06:00 EDT    2.13   2.70    4   26    5  66.2  64.2 1015.3 26.9  1.020 -99.9 -99.99 -9.99
2019/08/15 06:06 EDT    2.22   2.80    4   34    5  66.2  64.4 1015.3 26.9  1.020 -99.9 -99.99 -9.99
2019/08/15 06:12 EDT    2.30   2.90    4   25    5  66.0  64.2 1015.4 26.9  1.020 -99.9 -99.99 -9.99
2019/08/15 06:18 EDT    2.39   2.93    4   33    6  66.2  64.2 1015.4 26.9  1.020 -99.9 -99.99 -9.99
2019/08/15 06:24 EDT    2.47   3.01    5   26    7  66.2  64.2 1015.5 26.9  1.020 -99.9 -99.99 -9.99
2019/08/15 06:30 EDT    2.56   3.09    5   24    7  66.4  64.2 1015.4 26.8  1.020 -99.9 -99.99 -9.99
2019/08/15 06:36 EDT    2.64   3.13    5   23    7  66.4  64.2 1015.4 26.8  1.020 -99.9 -99.99 -9.99
2019/08/15 06:42 EDT    2.73   3.23    5   15    7  66.6  64.2 1015.4 26.9  1.020 -99.9 -99.99 -9.99
2019/08/15 06:48 EDT    2.81   3.34    4   15    7  66.7  64.2 1015.5 26.8  1.020 -99.9 -99.99 -9.99
2019/08/15 06:54 EDT    2.89   3.40    6   24    7  66.9  64.2 1015.6 26.8  1.020 -99.9 -99.99 -9.99
2019/08/15 07:00 EDT    2.96   3.52    4   16    8  67.1  64.2 1015.7 26.8  1.020 -99.9 -99.99 -9.99
2019/08/15 07:06 EDT    3.04   3.61    5   25    8  66.9  64.2 1015.9 26.8  1.020 -99.9 -99.99 -9.99
2019/08/15 07:12 EDT    3.11   3.63    5   15    9  66.9  64.2 1015.9 26.8  1.020 -99.9 -99.99 -9.99
2019/08/15 07:18 EDT    3.18   3.73    5   17    9  67.1  64.4 1016.0 26.8  1.020 -99.9 -99.99 -9.99
2019/08/15 07:24 EDT    3.24   3.78    5   13    8  66.9  64.4 1016.0 26.8  1.020 -99.9 -99.99 -9.99
2019/08/15 07:30 EDT    3.30   3.85 -999 -999 -999  66.9  64.4 1016.1 26.8  1.020 -99.9 -99.99 -9.99
2019/08/15 07:36 EDT    3.36   3.90 -999 -999 -999  67.3  64.4 1016.1 26.8  1.020 -99.9 -99.99 -9.99
2019/08/15 07:42 EDT    3.41   3.95    6   65    7  66.0  64.4 1016.2 26.8  1.020 -99.9 -99.99 -9.99
2019/08/15 07:48 EDT    3.45   4.00    6   47    7  65.8  64.4 1016.2 26.8  1.020 -99.9 -99.99 -9.99
2019/08/15 07:54 EDT    3.50   4.05    6   28    8  65.7  64.4 1016.3 26.7  1.020 -99.9 -99.99 -9.99
2019/08/15 08:00 EDT    3.53   4.08    4   27    8  65.7  64.4 1016.3 26.7  1.020 -99.9 -99.99 -9.99
2019/08/15 08:06 EDT    3.56   4.06    5   38    7  65.7  64.4 1016.4 26.7  1.020 -99.9 -99.99 -9.99
2019/08/15 08:12 EDT    3.59   4.08    5   20    7  65.7  64.4 1016.4 26.8  1.020 -99.9 -99.99 -9.99
2019/08/15 08:18 EDT    3.61   4.15    4   54    8  65.7  64.4 1016.4 26.8  1.020 -99.9 -99.99 -9.99
2019/08/15 08:24 EDT    3.62   4.16    6   40    8  65.5  64.4 1016.4 26.8  1.020 -99.9 -99.99 -9.99
2019/08/15 08:30 EDT    3.63   4.12    4   25    8  65.5  64.6 1016.4 26.7  1.020 -99.9 -99.99 -9.99
2019/08/15 08:36 EDT    3.63   4.17    6    9    8  65.7  64.6 1016.4 26.7  1.020 -99.9 -99.99 -9.99
2019/08/15 08:42 EDT    3.63   4.14    7   37    8  65.7  64.6 1016.4 26.7  1.020 -99.9 -99.99 -9.99
2019/08/15 08:48 EDT    3.62   4.16    5   28    8  66.0  64.4 1016.4 26.8  1.020 -99.9 -99.99 -9.99
2019/08/15 08:54 EDT    3.60   4.15    6    7    8  66.6  64.4 1016.4 26.7  1.020 -99.9 -99.99 -9.99
2019/08/15 09:00 EDT    3.58   4.09    6   31    7  66.7  64.4 1016.4 26.8  1.020 -99.9 -99.99 -9.99
2019/08/15 09:06 EDT    3.55   4.07    6   34    7  67.3  64.4 1016.5 26.8  1.020 -99.9 -99.99 -9.99
2019/08/15 09:12 EDT    3.52   4.06    5   24    9  67.8  64.4 1016.5 26.7  1.020 -99.9 -99.99 -9.99
2019/08/15 09:18 EDT    3.47   3.97    6   10    9  68.0  64.4 1016.6 26.7  1.020 -99.9 -99.99 -9.99
2019/08/15 09:24 EDT    3.43   3.96    7  348   10  68.2  64.4 1016.8 26.7  1.020 -99.9 -99.99 -9.99
2019/08/15 09:30 EDT    3.37   3.98    7  358   12  68.2  64.4 1017.0 26.7  1.020 -99.9 -99.99 -9.99
2019/08/15 09:36 EDT    3.32   3.89    9    7   12  68.0  64.4 1017.1 26.8  1.020 -99.9 -99.99 -9.99
2019/08/15 09:42 EDT    3.25   3.83    6    3   12  68.4  64.4 1017.2 26.8  1.020 -99.9 -99.99 -9.99
2019/08/15 09:48 EDT    3.18   3.75    7  348   11  68.4  64.4 1017.2 26.8  1.020 -99.9 -99.99 -9.99
2019/08/15 09:54 EDT    3.11   3.73    7    8   10  68.7  64.4 1017.3 26.8  1.020 -99.9 -99.99 -9.99
2019/08/15 10:00 EDT    3.03   3.62    8   15   11  68.7  64.4 1017.2 26.8  1.020 -99.9 -99.99 -9.99
2019/08/15 10:06 EDT    2.94   3.53   10   11   11  68.5  64.6 1017.2 26.7  1.020 -99.9 -99.99 -9.99
2019/08/15 10:12 EDT    2.85   3.49   10    7   11  68.5  64.6 1017.3 26.7  1.020 -99.9 -99.99 -9.99
2019/08/15 10:18 EDT    2.76   3.41    8   12   11  69.1  64.6 1017.4 26.7  1.020 -99.9 -99.99 -9.99
2019/08/15 10:24 EDT    2.67   3.33    9    7   10  68.9  64.6 1017.5 26.7  1.020 -99.9 -99.99 -9.99
2019/08/15 10:30 EDT    2.57   3.25    6  359   11  69.3  64.8 1017.5 26.7  1.020 -99.9 -99.99 -9.99
2019/08/15 10:36 EDT    2.47   3.16    8    3   11  69.4  64.8 1017.5 26.7  1.020 -99.9 -99.99 -9.99
2019/08/15 10:42 EDT    2.36   3.02    6    5   10  69.8  64.8 1017.5 26.7  1.020 -99.9 -99.99 -9.99
2019/08/15 10:48 EDT    2.26   2.94 -999 -999 -999  70.0  64.9 1017.5 26.6  1.020 -99.9 -99.99 -9.99
2019/08/15 10:54 EDT    2.15   2.86    7  343   11  70.3  64.9 1017.5 26.7  1.020 -99.9 -99.99 -9.99
2019/08/15 11:00 EDT    2.05   2.79    8  349   11  70.0  65.1 1017.4 26.6  1.020 -99.9 -99.99 -9.99
2019/08/15 11:06 EDT    1.94   2.70    9    1   12  70.2  65.3 1017.4 26.6  1.020 -99.9 -99.99 -9.99
2019/08/15 11:12 EDT    1.83   2.56   10  347   12  69.8  65.1 1017.4 26.7  1.020 -99.9 -99.99 -9.99
2019/08/15 11:18 EDT    1.73   2.47    8    2   12  70.2  65.1 1017.4 26.7  1.020 -99.9 -99.99 -9.99
2019/08/15 11:24 EDT    1.62   2.30    8    3   11  70.3  65.3 1017.4 26.7  1.020 -99.9 -99.99 -9.99
2019/08/15 11:30 EDT    1.52   2.20    9    3   12  70.2  65.1 1017.4 26.7  1.020 -99.9 -99.99 -9.99
2019/08/15 11:36 EDT    1.42   2.14    9    5   11  70.3  65.1 1017.4 26.7  1.020 -99.9 -99.99 -9.99
2019/08/15 11:42 EDT    1.32   2.00 -999 -999 -999  70.9  64.9 1017.3 26.7  1.020 -99.9 -99.99 -9.99
2019/08/15 11:48 EDT    1.23   1.96    8    3   12  71.1  64.8 1017.3 26.8  1.020 -99.9 -99.99 -9.99
2019/08/15 11:54 EDT    1.13   1.84 -999 -999 -999  71.2  64.6 1017.2 26.8  1.020 -99.9 -99.99 -9.99
2019/08/15 12:00 EDT    1.05   1.79    7  335   11  71.4  64.9 1017.2 26.7  1.020 -99.9 -99.99 -9.99
2019/08/15 12:06 EDT    0.96   1.67    8  335   11  71.6  64.8 1017.1 26.8  1.020 -99.9 -99.99 -9.99
2019/08/15 12:12 EDT    0.89   1.57    8  333   11  72.0  64.6 1017.1 26.8  1.020 -99.9 -99.99 -9.99
2019/08/15 12:18 EDT    0.81   1.50    7  343   13  72.1  64.8 1017.1 26.8  1.020 -99.9 -99.99 -9.99
2019/08/15 12:24 EDT    0.74   1.36    9  348   13  72.0  64.6 1017.1 26.8  1.020 -99.9 -99.99 -9.99
2019/08/15 12:30 EDT    0.68   1.29    8  339   11  72.5  64.6 1017.0 26.8  1.020 -99.9 -99.99 -9.99
2019/08/15 12:36 EDT    0.62   1.21    6  345    9  73.2  64.6 1017.0 26.8  1.020 -99.9 -99.99 -9.99
2019/08/15 12:42 EDT    0.57   1.22    4  349    9  73.9  64.4 1017.0 26.8  1.020 -99.9 -99.99 -9.99
2019/08/15 12:48 EDT    0.52   1.08    7   11    8  73.4  64.0 1017.1 26.9  1.020 -99.9 -99.99 -9.99
2019/08/15 12:54 EDT    0.48   1.03    5  343    8  73.8  64.0 1017.1 26.9  1.020 -99.9 -99.99 -9.99
2019/08/15 13:00 EDT    0.44   0.99    5  353    6  74.3  64.4 1017.1 26.9  1.020 -99.9 -99.99 -9.99
2019/08/15 13:06 EDT    0.41   0.89 -999 -999 -999  74.5  64.0 1017.1 26.9  1.020 -99.9 -99.99 -9.99
2019/08/15 13:12 EDT    0.38   0.90    4   11    8  75.2  63.9 1017.0 27.0  1.020 -99.9 -99.99 -9.99
2019/08/15 13:18 EDT    0.36   0.84    1   23    8  75.9  64.0 1017.0 26.9  1.020 -99.9 -99.99 -9.99
2019/08/15 13:24 EDT    0.34   0.89 -999 -999 -999  75.0  64.0 1016.9 26.9  1.020 -99.9 -99.99 -9.99
2019/08/15 13:30 EDT    0.33   0.84    4  219    5  75.9  63.9 1016.8 26.9  1.020 -99.9 -99.99 -9.99
2019/08/15 13:36 EDT    0.32   0.81    4  221    5  76.5  63.9 1016.8 26.9  1.020 -99.9 -99.99 -9.99
2019/08/15 13:42 EDT    0.31   0.85    4  227    4  75.6  63.9 1016.7 26.9  1.020 -99.9 -99.99 -9.99
2019/08/15 13:48 EDT    0.31   0.79    5  244    5  74.5  63.9 1016.6 26.9  1.020 -99.9 -99.99 -9.99
2019/08/15 13:54 EDT    0.31   0.82    5  226    6  74.8  64.0 1016.6 26.9  1.020 -99.9 -99.99 -9.99
2019/08/15 14:00 EDT    0.31   0.85    5  243    6  74.7  64.4 1016.5 26.8  1.020 -99.9 -99.99 -9.99
2019/08/15 14:06 EDT    0.32   0.83    5  259    8  75.0  64.4 1016.5 26.8  1.020 -99.9 -99.99 -9.99
2019/08/15 14:12 EDT    0.33   0.83    2  239    6  76.5  64.2 1016.5 26.8  1.020 -99.9 -99.99 -9.99
2019/08/15 14:18 EDT    0.35   0.86   10  133   12  77.0  64.2 1016.4 26.8  1.020 -99.9 -99.99 -9.99
2019/08/15 14:24 EDT    0.36   0.90    9  141   12  77.2  64.8 1016.4 26.7  1.020 -99.9 -99.99 -9.99
2019/08/15 14:30 EDT    0.38   0.91   11  137   14  76.1  64.0 1016.4 26.8  1.020 -99.9 -99.99 -9.99
2019/08/15 14:36 EDT    0.40   0.94   12  151   14  76.3  64.2 1016.4 26.8  1.020 -99.9 -99.99 -9.99
2019/08/15 14:42 EDT    0.42   0.91    9  120   14  76.1  64.2 1016.5 26.8  1.020 -99.9 -99.99 -9.99
2019/08/15 14:48 EDT    0.44   0.94    9  118   12  75.6  64.2 1016.5 26.8  1.020 -99.9 -99.99 -9.99
2019/08/15 14:54 EDT    0.47   1.00   10  133   13  75.9  64.4 1016.5 26.7  1.020 -99.9 -99.99 -9.99
2019/08/15 15:00 EDT    0.50   0.99   11  108   15  75.2  64.6 1016.5 26.7  1.020 -99.9 -99.99 -9.99
2019/08/15 15:06 EDT    0.53   1.06   10  117   15  75.0  64.8 1016.5 26.6  1.020 -99.9 -99.99 -9.99
2019/08/15 15:12 EDT    0.56   1.11   11  109   15  74.7  64.8 1016.5 26.6  1.020 -99.9 -99.99 -9.99
2019/08/15 15:18 EDT    0.59   1.13   11  128   15  75.2  64.8 1016.5 26.6  1.020 -99.9 -99.99 -9.99
2019/08/15 15:24 EDT    0.63   1.16   10  134   13  75.6  64.8 1016.4 26.6  1.020 -99.9 -99.99 -9.99
2019/08/15 15:30 EDT    0.66   1.25   10  128   13  75.7  64.8 1016.4 26.6  1.020 -99.9 -99.99 -9.99
2019/08/15 15:36 EDT    0.70   1.27    8  125   13  75.6  64.8 1016.4 26.6  1.020 -99.9 -99.99 -9.99
2019/08/15 15:42 EDT    0.74   1.31    9  102   12  75.4  64.8 1016.4 26.6  1.020 -99.9 -99.99 -9.99
2019/08/15 15:48 EDT    0.78   1.36   10   98   12  75.0  65.1 1016.4 26.5  1.020 -99.9 -99.99 -9.99
2019/08/15 15:54 EDT    0.83   1.40   10  101   13  74.5  65.1 1016.5 26.5  1.020 -99.9 -99.99 -9.99
2019/08/15 16:00 EDT    0.87   1.47    9  128   16  75.2  65.5 1016.5 26.5  1.020 -99.9 -99.99 -9.99
2019/08/15 16:06 EDT    0.92   1.55   12  130   14  74.7  65.5 1016.4 26.5  1.020 -99.9 -99.99 -9.99
2019/08/15 16:12 EDT    0.97   1.56   11  129   15  74.5  65.5 1016.6 26.5  1.020 -99.9 -99.99 -9.99
2019/08/15 16:18 EDT    1.02   1.60   12  117   14  73.8  65.8 1016.6 26.5  1.020 -99.9 -99.99 -9.99
2019/08/15 16:24 EDT    1.07   1.71   10  115   15  73.6  65.5 1016.6 26.5  1.020 -99.9 -99.99 -9.99
2019/08/15 16:30 EDT    1.13   1.74   11  119   15  73.6  65.8 1016.6 26.3  1.019 -99.9 -99.99 -9.99
2019/08/15 16:36 EDT    1.18   1.80 -999 -999 -999 -99.9 -99.9 -999.9 -9.9 -9.999 -99.9 -99.99 -9.99
2019/08/15 16:42 EDT    1.24   1.88    8  126   14  73.0  65.5 1016.7 26.4  1.019 -99.9 -99.99 -9.99
2019/08/15 16:48 EDT    1.31   1.90   10  137   13  72.3  65.8 1016.7 26.4  1.019 -99.9 -99.99 -9.99
2019/08/15 16:54 EDT    1.37   1.98    8  133   13  72.9  65.8 1016.7 26.4  1.019 -99.9 -99.99 -9.99
2019/08/15 17:00 EDT    1.43   2.10   10  147   13  72.5  65.8 1016.7 26.4  1.019 -99.9 -99.99 -9.99
2019/08/15 17:06 EDT    1.50   2.13    7  135   12  73.0  65.8 1016.6 26.3  1.019 -99.9 -99.99 -9.99
2019/08/15 17:12 EDT    1.57   2.21    6  136   10  73.2  65.8 1016.6 26.3  1.019 -99.9 -99.99 -9.99
2019/08/15 17:18 EDT    1.64   2.27    6  128   10  73.0  65.7 1016.6 26.3  1.019 -99.9 -99.99 -9.99
2019/08/15 17:24 EDT    1.72   2.36    7  145   10  73.2  65.7 1016.6 26.4  1.019 -99.9 -99.99 -9.99
2019/08/15 17:30 EDT    1.79   2.41    6  136   10  73.0  65.8 1016.6 26.3  1.019 -99.9 -99.99 -9.99
2019/08/15 17:36 EDT    1.87   2.49    6  129   11  72.7  66.0 1016.6 26.3  1.019 -99.9 -99.99 -9.99
2019/08/15 17:42 EDT    1.95   2.58    6  130   10  72.5  65.8 1016.5 26.3  1.019 -99.9 -99.99 -9.99
2019/08/15 17:48 EDT    2.03   2.64    6  123   10  72.3  65.8 1016.5 26.3  1.019 -99.9 -99.99 -9.99
2019/08/15 17:54 EDT    2.11   2.76    7  129   10  72.1  65.8 1016.5 26.3  1.019 -99.9 -99.99 -9.99
2019/08/15 18:00 EDT    2.19   2.85    7  139    9  72.5  65.8 1016.6 26.4  1.019 -99.9 -99.99 -9.99
2019/08/15 18:06 EDT    2.27   2.92    6  137    9  72.1  65.8 1016.7 26.4  1.019 -99.9 -99.99 -9.99
2019/08/15 18:12 EDT    2.36   3.00    6  137   11  72.0  66.0 1016.7 26.3  1.019 -99.9 -99.99 -9.99
2019/08/15 18:18 EDT    2.44   3.05    7  134   11  72.0  65.8 1016.7 26.3  1.019 -99.9 -99.99 -9.99
2019/08/15 18:24 EDT    2.53   3.10    8  145   10  71.6  66.0 1016.7 26.3  1.019 -99.9 -99.99 -9.99
2019/08/15 18:30 EDT    2.61   3.24    7  143   10  71.6  66.0 1016.6 26.2  1.019 -99.9 -99.99 -9.99
2019/08/15 18:36 EDT    2.70   3.28 -999 -999 -999 -99.9 -99.9 -999.9 -9.9 -9.999 -99.9 -99.99 -9.99
2019/08/15 18:42 EDT    2.78   3.41    4  133    8  71.2  66.0 1016.8 26.2  1.019 -99.9 -99.99 -9.99
2019/08/15 18:48 EDT    2.86   3.49    6  136    8  71.1  66.0 1016.8 26.3  1.019 -99.9 -99.99 -9.99
2019/08/15 18:54 EDT    2.95   3.53    6  138    8  70.9  66.2 1016.8 26.2  1.019 -99.9 -99.99 -9.99
2019/08/15 19:00 EDT    3.03   3.61    6  142    9  70.7  66.2 1016.8 26.3  1.019 -99.9 -99.99 -9.99
2019/08/15 19:06 EDT    3.11   3.64    7  132   10  70.5  66.2 1016.7 26.3  1.019 -99.9 -99.99 -9.99
2019/08/15 19:12 EDT    3.18   3.76    7  131    9  70.3  66.0 1016.7 26.3  1.019 -99.9 -99.99 -9.99
2019/08/15 19:18 EDT    3.26   3.85    7  132    8  70.3  66.0 1016.7 26.3  1.019 -99.9 -99.99 -9.99
2019/08/15 19:24 EDT    3.33   3.89    6  128   11  70.2  66.0 1016.7 26.3  1.019 -99.9 -99.99 -9.99
2019/08/15 19:30 EDT    3.40   3.98    7  129   10  69.8  66.0 1016.7 26.3  1.019 -99.9 -99.99 -9.99
2019/08/15 19:36 EDT    3.47   4.06    7  136   10  69.8  66.0 1016.8 26.3  1.019 -99.9 -99.99 -9.99
2019/08/15 19:42 EDT    3.53   4.09    7  133    9  69.6  66.2 1016.8 26.2  1.019 -99.9 -99.99 -9.99
2019/08/15 19:48 EDT    3.59   4.12    7  131   10  69.6  66.0 1016.8 26.2  1.019 -99.9 -99.99 -9.99
2019/08/15 19:54 EDT    3.65   4.18    6  128   10  69.6  66.2 1016.8 26.3  1.019 -99.9 -99.99 -9.99
2019/08/15 20:00 EDT    3.70   4.20    7  133   10  69.4  66.2 1016.8 26.3  1.019 -99.9 -99.99 -9.99
2019/08/15 20:06 EDT    3.74   4.27    6  130   12  69.4  66.2 1016.7 26.2  1.019 -99.9 -99.99 -9.99
2019/08/15 20:12 EDT    3.79   4.30    8  134   10  69.4  66.2 1016.9 26.2  1.019 -99.9 -99.99 -9.99
2019/08/15 20:18 EDT    3.82   4.31    7  135   10  69.4  66.0 1017.0 26.3  1.019 -99.9 -99.99 -9.99
2019/08/15 20:24 EDT    3.85   4.34    4  130    8  69.4  66.2 1017.1 26.3  1.019 -99.9 -99.99 -9.99
2019/08/15 20:30 EDT    3.88   4.41    3  146    8  69.3  65.7 1017.1 26.3  1.019 -99.9 -99.99 -9.99
2019/08/15 20:36 EDT    3.90   4.43    3  112    5  69.3  65.5 1017.1 26.4  1.019 -99.9 -99.99 -9.99
2019/08/15 20:42 EDT    3.92   4.47    4   96    6  69.3  65.3 1017.3 26.4  1.019 -99.9 -99.99 -9.99
2019/08/15 20:48 EDT    3.93   4.49    7  108    9  69.3  65.5 1017.3 26.3  1.019 -99.9 -99.99 -9.99
2019/08/15 20:54 EDT    3.93   4.47    5  117    9  69.3  65.3 1017.3 26.4  1.019 -99.9 -99.99 -9.99
2019/08/15 21:00 EDT    3.93   4.49    4  103    7  69.1  65.3 1017.4 26.3  1.019 -99.9 -99.99 -9.99
2019/08/15 21:06 EDT    3.92   4.48    7  106    9  69.1  65.3 1017.5 26.4  1.019 -99.9 -99.99 -9.99
2019/08/15 21:12 EDT    3.90   4.41    4  113    8  69.1  64.9 1017.5 26.4  1.020 -99.9 -99.99 -9.99
2019/08/15 21:18 EDT    3.88   4.40    6  105    9  68.9  65.1 1017.6 26.4  1.020 -99.9 -99.99 -9.99
2019/08/15 21:24 EDT    3.86   4.42    6  117    8  68.9  64.8 1017.5 26.5  1.020 -99.9 -99.99 -9.99
2019/08/15 21:30 EDT    3.82   4.42    5  113    9  68.7  64.9 1017.5 26.5  1.020 -99.9 -99.99 -9.99
2019/08/15 21:36 EDT    3.78   4.32    6  119    8  68.7  65.5 1017.4 26.3  1.019 -99.9 -99.99 -9.99
2019/08/15 21:42 EDT    3.74   4.34    6  112    9  68.5  65.7 1017.4 26.4  1.019 -99.9 -99.99 -9.99
2019/08/15 21:48 EDT    3.69   4.31    4  107    8  68.5  65.8 1017.4 26.3  1.019 -99.9 -99.99 -9.99
2019/08/15 21:54 EDT    3.63   4.25    2   95    8  68.4  65.7 1017.5 26.3  1.019 -99.9 -99.99 -9.99
2019/08/15 22:00 EDT    3.57   4.21    3  110    5  68.4  65.7 1017.6 26.5  1.020 -99.9 -99.99 -9.99
2019/08/15 22:06 EDT    3.50   4.15    3   85    6  68.4  65.7 1017.6 26.3  1.019 -99.9 -99.99 -9.99
2019/08/15 22:12 EDT    3.43   4.10    3   54    6  68.2  65.7 1017.7 26.6  1.020 -99.9 -99.99 -9.99
2019/08/15 22:18 EDT    3.35   4.08    3   65    3  68.2  65.7 1017.8 26.6  1.020 -99.9 -99.99 -9.99
2019/08/15 22:24 EDT    3.27   3.95    2   88    5  68.2  65.7 1017.8 26.5  1.020 -99.9 -99.99 -9.99
2019/08/15 22:30 EDT    3.18   3.83    3   73    4  68.0  65.7 1017.7 26.5  1.020 -99.9 -99.99 -9.99
2019/08/15 22:36 EDT    3.09   3.80    1   34    3  67.8  65.7 1017.7 26.5  1.019 -99.9 -99.99 -9.99
2019/08/15 22:42 EDT    2.99   3.69    1   16    3  67.8  65.7 1017.7 26.5  1.020 -99.9 -99.99 -9.99
2019/08/15 22:48 EDT    2.90   3.59    2   26    2  67.6  65.8 1017.6 26.5  1.019 -99.9 -99.99 -9.99
2019/08/15 22:54 EDT    2.79   3.53    0   42    3  67.6  65.7 1017.7 26.5  1.020 -99.9 -99.99 -9.99
2019/08/15 23:00 EDT    2.69   3.44    1   20    2  67.6  65.7 1017.7 26.5  1.020 -99.9 -99.99 -9.99
2019/08/15 23:06 EDT    2.58   3.34    0   16    2  67.5  65.8 1017.9 26.4  1.019 -99.9 -99.99 -9.99
2019/08/15 23:12 EDT    2.47   3.21    1   13    1  67.3  65.8 1018.0 26.5  1.019 -99.9 -99.99 -9.99
2019/08/15 23:18 EDT    2.36   3.10    1    8    2  67.5  65.8 1018.0 26.5  1.019 -99.9 -99.99 -9.99
2019/08/15 23:24 EDT    2.25   2.95    1   40    2  67.3  65.8 1017.9 26.5  1.019 -99.9 -99.99 -9.99
2019/08/15 23:30 EDT    2.14   2.89    2   29    2  67.3  65.8 1017.9 26.5  1.019 -99.9 -99.99 -9.99
2019/08/15 23:36 EDT    2.03   2.75    1    9    2  67.3  65.8 1017.9 26.5  1.019 -99.9 -99.99 -9.99
2019/08/15 23:42 EDT    1.92   2.62    1   32    2  67.1  66.0 1017.8 26.5  1.019 -99.9 -99.99 -9.99
2019/08/15 23:48 EDT    1.81   2.61    2   24    2  67.3  65.8 1017.8 26.5  1.020 -99.9 -99.99 -9.99
2019/08/15 23:54 EDT    1.70   2.45    1   24    2  67.3  65.8 1017.8 26.5  1.020 -99.9 -99.99 -9.99
2019/08/16 00:00 EDT    1.60   2.33    1   32    2  67.1  66.0 1017.8 26.5  1.019 -99.9 -99.99 -9.99
2019/08/16 00:06 EDT    1.50   2.26    0   76    1  67.1  65.8 1017.8 26.5  1.020 -99.9 -99.99 -9.99
2019/08/16 00:12 EDT    1.40   2.09    0   67    1  67.1  65.8 1017.8 26.5  1.020 -99.9 -99.99 -9.99
2019/08/16 00:18 EDT    1.30   2.05    1  328    2  67.1  66.0 1018.2 26.5  1.019 -99.9 -99.99 -9.99
2019/08/16 00:24 EDT    1.21   1.95    2    3    2  67.1  66.0 1018.2 26.3  1.019 -99.9 -99.99 -9.99
2019/08/16 00:30 EDT    1.12   1.84    3  348    4  67.3  66.0 1018.3 26.5  1.019 -99.9 -99.99 -9.99
2019/08/16 00:36 EDT    1.03   1.81    3    8    4  67.5  66.0 1018.3 26.4  1.019 -99.9 -99.99 -9.99
2019/08/16 00:42 EDT    0.95   1.68    2    8    4  67.5  66.0 1018.1 26.4  1.019 -99.9 -99.99 -9.99
2019/08/16 00:48 EDT    0.87   1.56    2   36    3  67.6  66.0 1018.0 26.5  1.019 -99.9 -99.99 -9.99
2019/08/16 00:54 EDT    0.80   1.45    2   25    3  67.5  65.8 1018.0 26.5  1.020 -99.9 -99.99 -9.99
2019/08/16 01:00 EDT    0.73   1.45    1   11    3  67.5  66.0 1018.0 26.5  1.019 -99.9 -99.99 -9.99
2019/08/16 01:06 EDT    0.67   1.32    0   32    1  67.5  65.8 1017.9 26.5  1.020 -99.9 -99.99 -9.99
2019/08/16 01:12 EDT    0.62   1.25    1   35    1  67.3  65.8 1017.9 26.5  1.019 -99.9 -99.99 -9.99
2019/08/16 01:18 EDT    0.56   1.22    2   49    2  67.3  65.8 1017.9 26.4  1.019 -99.9 -99.99 -9.99
2019/08/16 01:24 EDT    0.52   1.13    2   51    2  67.3  65.3 1017.9 26.5  1.020 -99.9 -99.99 -9.99
2019/08/16 01:30 EDT    0.47   1.11    1   67    2  67.1  65.3 1017.9 26.4  1.020 -99.9 -99.99 -9.99
2019/08/16 01:36 EDT    0.44   1.00    2   40    2  67.1  65.3 1017.8 26.5  1.020 -99.9 -99.99 -9.99
2019/08/16 01:42 EDT    0.40   0.97    1   10    3  67.1  65.1 1017.8 26.4  1.020 -99.9 -99.99 -9.99
2019/08/16 01:48 EDT    0.37   0.94    2   13    2  66.9  64.9 1017.7 26.7  1.020 -99.9 -99.99 -9.99
2019/08/16 01:54 EDT    0.35   0.93    4   31    4  66.9  64.8 1017.6 26.7  1.020 -99.9 -99.99 -9.99
2019/08/16 02:00 EDT    0.33   0.94    3   27    5  66.9  64.4 1017.5 26.7  1.020 -99.9 -99.99 -9.99
2019/08/16 02:06 EDT    0.31   0.88    4   25    5  66.9  64.6 1017.4 26.7  1.020 -99.9 -99.99 -9.99
2019/08/16 02:12 EDT    0.30   0.90    4   22    5  66.9  64.6 1017.4 26.6  1.020 -99.9 -99.99 -9.99
2019/08/16 02:18 EDT    0.29   0.86    4   36    5  66.7  64.4 1017.4 26.7  1.020 -99.9 -99.99 -9.99
2019/08/16 02:24 EDT    0.28   0.86    2   49    4  66.7  64.6 1017.4 26.6  1.020 -99.9 -99.99 -9.99
2019/08/16 02:30 EDT    0.28   0.89    2   38    3  66.7  64.4 1017.5 26.6  1.020 -99.9 -99.99 -9.99
2019/08/16 02:36 EDT    0.28   0.83    2   45    2  66.7  64.4 1017.4 26.6  1.020 -99.9 -99.99 -9.99
2019/08/16 02:42 EDT    0.28   0.85    2   41    3  66.6  64.2 1017.2 26.6  1.020 -99.9 -99.99 -9.99
2019/08/16 02:48 EDT    0.29   0.77    3   43    4  66.4  64.2 1017.0 26.6  1.020 -99.9 -99.99 -9.99
2019/08/16 02:54 EDT    0.29   0.87    3   25    3  66.4  64.2 1016.9 26.4  1.020 -99.9 -99.99 -9.99
2019/08/16 03:00 EDT    0.30   0.84    3   21    5  66.4  64.0 1017.0 26.5  1.020 -99.9 -99.99 -9.99
2019/08/16 03:06 EDT    0.32   0.86    4   14    4  66.4  64.0 1017.0 26.6  1.020 -99.9 -99.99 -9.99
2019/08/16 03:12 EDT    0.33   0.82    3   11    4  66.4  63.9 1017.1 26.5  1.020 -99.9 -99.99 -9.99
2019/08/16 03:18 EDT    0.35   0.79    4   20    5  66.4  63.9 1017.0 26.7  1.020 -99.9 -99.99 -9.99
2019/08/16 03:24 EDT    0.37   0.89    5   35    5  66.4  63.9 1016.9 26.7  1.020 -99.9 -99.99 -9.99
2019/08/16 03:30 EDT    0.39   0.90    4   27    6  66.4  63.9 1016.9 26.7  1.020 -99.9 -99.99 -9.99
2019/08/16 03:36 EDT    0.41   0.89    4   32    4  66.4  63.9 1016.8 26.7  1.020 -99.9 -99.99 -9.99
2019/08/16 03:42 EDT    0.44   0.91    3   24    4  66.2  63.7 1016.9 26.7  1.020 -99.9 -99.99 -9.99
2019/08/16 03:48 EDT    0.47   0.94    3    9    5  66.0  63.7 1017.1 26.6  1.020 -99.9 -99.99 -9.99
2019/08/16 03:54 EDT    0.50   0.96    3   19    4  66.0  63.7 1017.1 26.6  1.020 -99.9 -99.99 -9.99
2019/08/16 04:00 EDT    0.53   1.03    3   41    4  66.0  63.7 1017.0 26.7  1.020 -99.9 -99.99 -9.99
2019/08/16 04:06 EDT    0.56   1.14    3   54    4  65.8  63.7 1016.9 26.6  1.020 -99.9 -99.99 -9.99
2019/08/16 04:12 EDT    0.60   1.17    3   57    4  65.8  63.9 1016.8 26.6  1.020 -99.9 -99.99 -9.99
2019/08/16 04:18 EDT    0.64   1.27    1   18    3  65.7  64.2 1017.0 26.6  1.020 -99.9 -99.99 -9.99
2019/08/16 04:24 EDT    0.68   1.22    3   15    3  65.7  64.4 1017.1 26.6  1.020 -99.9 -99.99 -9.99
2019/08/16 04:30 EDT    0.73   1.21    3   43    4  65.8  64.4 1016.9 26.6  1.020 -99.9 -99.99 -9.99
2019/08/16 04:36 EDT    0.77   1.28    3   69    5  65.5  64.6 1016.7 26.7  1.020 -99.9 -99.99 -9.99
2019/08/16 04:42 EDT    0.82   1.31    3   59    4  65.5  64.8 1016.8 26.5  1.020 -99.9 -99.99 -9.99
2019/08/16 04:48 EDT    0.87   1.39    2   36    4  65.7  64.8 1016.9 26.4  1.020 -99.9 -99.99 -9.99
2019/08/16 04:54 EDT    0.93   1.41    4   32    4  65.7  64.8 1017.0 26.4  1.020 -99.9 -99.99 -9.99
2019/08/16 05:00 EDT    0.98   1.55    4   40    4  65.7  64.6 1017.0 26.5  1.020 -99.9 -99.99 -9.99
2019/08/16 05:06 EDT    1.04   1.69    3   34    5  65.7  64.8 1017.1 26.4  1.020 -99.9 -99.99 -9.99
2019/08/16 05:12 EDT    1.10   1.73    4   26    4  65.5  64.6 1017.1 26.4  1.020 -99.9 -99.99 -9.99
2019/08/16 05:18 EDT    1.17   1.82    5   36    5  65.5  64.6 1017.0 26.4  1.020 -99.9 -99.99 -9.99
2019/08/16 05:24 EDT    1.23   1.81    3   36    6  65.5  64.4 1017.0 26.4  1.020 -99.9 -99.99 -9.99
2019/08/16 05:30 EDT    1.30   1.93    3   35    4  65.3  64.4 1017.1 26.3  1.020 -99.9 -99.99 -9.99
2019/08/16 05:36 EDT    1.37   1.97    3   48    4  65.3  64.6 1017.1 26.3  1.020 -99.9 -99.99 -9.99
2019/08/16 05:42 EDT    1.44   2.04    3   26    4  65.3  64.6 1017.3 26.3  1.019 -99.9 -99.99 -9.99
2019/08/16 05:48 EDT    1.52   2.15    4   25    4  65.3  64.6 1017.4 26.2  1.019 -99.9 -99.99 -9.99
2019/08/16 05:54 EDT    1.59   2.26    3   27    4  65.3  64.4 1017.4 26.1  1.019 -99.9 -99.99 -9.99
2019/08/16 06:00 EDT    1.67   2.32    4   33    5  65.1  64.4 1017.3 26.1  1.019 -99.9 -99.99 -9.99
2019/08/16 06:06 EDT    1.75   2.37    4   36    5  65.1  64.6 1017.3 26.0  1.019 -99.9 -99.99 -9.99
2019/08/16 06:12 EDT    1.83   2.52    5   38    6  65.3  64.6 1017.3 26.0  1.019 -99.9 -99.99 -9.99
2019/08/16 06:18 EDT    1.91   2.59    6   32    7  65.5  64.8 1017.4 26.0  1.019 -99.9 -99.99 -9.99
2019/08/16 06:24 EDT    1.99   2.68    5   30    7  65.7  64.8 1017.4 26.0  1.019 -99.9 -99.99 -9.99
2019/08/16 06:30 EDT    2.08   2.72    4   43    6  65.8  64.8 1017.4 25.9  1.019 -99.9 -99.99 -9.99
2019/08/16 06:36 EDT    2.16   2.74    4   41    5  66.0  64.8 1017.5 26.0  1.019 -99.9 -99.99 -9.99
2019/08/16 06:42 EDT    2.24   2.90    4   43    5  66.2  64.8 1017.6 26.0  1.019 -99.9 -99.99 -9.99
2019/08/16 06:48 EDT    2.33   2.96    4   34    5  66.4  64.8 1017.6 26.0  1.019 -99.9 -99.99 -9.99
2019/08/16 06:54 EDT    2.41   3.05    4   34    6  66.4  64.8 1017.7 26.0  1.019 -99.9 -99.99 -9.99
2019/08/16 07:00 EDT    2.50   3.12    4   32    5  66.4  64.8 1017.7 25.9  1.019 -99.9 -99.99 -9.99
2019/08/16 07:06 EDT    2.58   3.17    4   28    5  66.7  64.8 1017.7 25.9  1.019 -99.9 -99.99 -9.99
2019/08/16 07:12 EDT    2.66   3.31    4   23    6  67.1  64.8 1017.7 25.9  1.019 -99.9 -99.99 -9.99
2019/08/16 07:18 EDT    2.74   3.35    5   26    7  67.1  64.8 1017.7 25.9  1.019 -99.9 -99.99 -9.99
2019/08/16 07:24 EDT    2.82   3.48    5   28    7  67.3  64.8 1017.7 25.9  1.019 -99.9 -99.99 -9.99
2019/08/16 07:30 EDT    2.90   3.54    4   25    7  67.3  64.8 1017.8 25.9  1.019 -99.9 -99.99 -9.99
2019/08/16 07:36 EDT    2.97   3.55    5   24    6  67.3  64.8 1017.8 25.9  1.019 -99.9 -99.99 -9.99
2019/08/16 07:42 EDT    3.05   3.65    4   30    7  67.3  64.8 1018.0 25.9  1.019 -99.9 -99.99 -9.99
2019/08/16 07:48 EDT    3.12   3.73    4   30    5  67.5  64.8 1018.2 25.9  1.019 -99.9 -99.99 -9.99
2019/08/16 07:54 EDT    3.18   3.78    4   53    6  68.0  64.8 1018.1 25.9  1.019 -99.9 -99.99 -9.99
2019/08/16 08:00 EDT    3.25   3.77    3   67    5  68.7  64.8 1018.1 25.9  1.019 -99.9 -99.99 -9.99
2019/08/16 08:06 EDT    3.30   3.84    5   65    6  68.5  64.8 1018.0 25.9  1.019 -99.9 -99.99 -9.99
2019/08/16 08:12 EDT    3.36   3.88    4   77    7  68.7  64.8 1018.0 25.9  1.019 -99.9 -99.99 -9.99
2019/08/16 08:18 EDT    3.41   3.92    4   61    6  68.9  64.8 1018.0 25.9  1.019 -99.9 -99.99 -9.99
2019/08/16 08:24 EDT    3.46   4.01    4   36    6  68.7  64.8 1018.0 25.8  1.019 -99.9 -99.99 -9.99
2019/08/16 08:30 EDT    3.50   3.98    5   72    6  68.9  64.8 1018.0 26.1  1.019 -99.9 -99.99 -9.99
2019/08/16 08:36 EDT    3.54   4.01    4   80    6  69.3  64.8 1018.0 26.1  1.019 -99.9 -99.99 -9.99
2019/08/16 08:42 EDT    3.57   4.04    2   57    7  69.4  64.8 1018.0 26.1  1.019 -99.9 -99.99 -9.99
2019/08/16 08:48 EDT    3.59   4.02    3   52    6  69.3  64.8 1018.0 26.1  1.019 -99.9 -99.99 -9.99
2019/08/16 08:54 EDT    3.62   4.00    4   39    5  69.3  64.8 1017.9 26.1  1.019 -99.9 -99.99 -9.99
2019/08/16 09:00 EDT    3.63   4.03    4   44    5  69.6  64.9 1017.9 26.0  1.019 -99.9 -99.99 -9.99
2019/08/16 09:06 EDT    3.64   4.06    5   86    7  70.0  64.8 1017.9 26.0  1.019 -99.9 -99.99 -9.99
2019/08/16 09:12 EDT    3.65   4.05    7   55    7  70.3  64.8 1017.9 26.0  1.019 -99.9 -99.99 -9.99
2019/08/16 09:18 EDT    3.64   4.09    5   61    7  70.5  64.8 1017.8 26.0  1.019 -99.9 -99.99 -9.99
2019/08/16 09:24 EDT    3.64   4.16    5   78    7  70.3  64.8 1017.8 26.0  1.019 -99.9 -99.99 -9.99
2019/08/16 09:30 EDT    3.62   4.10    4   78    6  70.0  64.8 1017.9 26.0  1.019 -99.9 -99.99 -9.99
2019/08/16 09:36 EDT    3.60   4.02    4   58    5  70.9  64.8 1018.0 26.0  1.019 -99.9 -99.99 -9.99
2019/08/16 09:42 EDT    3.58   4.03    4   67    6  70.5  64.8 1018.2 26.0  1.019 -99.9 -99.99 -9.99
2019/08/16 09:48 EDT    3.54   4.02    2   78    6  71.1  64.8 1018.2 26.0  1.019 -99.9 -99.99 -9.99
2019/08/16 09:54 EDT    3.51   3.93    4  134    8  71.8  64.8 1018.3 26.0  1.019 -99.9 -99.99 -9.99
2019/08/16 10:00 EDT    3.46 -99.99 -999 -999 -999 -99.9 -99.9 -999.9 -9.9 -9.999 -99.9 -99.99 -9.99
2019/08/16 10:06 EDT    3.41 -99.99 -999 -999 -999 -99.9 -99.9 -999.9 -9.9 -9.999 -99.9 -99.99 -9.99
2019/08/16 10:12 EDT    3.36 -99.99 -999 -999 -999 -99.9 -99.9 -999.9 -9.9 -9.999 -99.9 -99.99 -9.99
2019/08/16 10:18 EDT    3.30 -99.99 -999 -999 -999 -99.9 -99.9 -999.9 -9.9 -9.999 -99.9 -99.99 -9.99
2019/08/16 10:24 EDT    3.24 -99.99 -999 -999 -999 -99.9 -99.9 -999.9 -9.9 -9.999 -99.9 -99.99 -9.99
2019/08/16 10:30 EDT    3.16 -99.99 -999 -999 -999 -99.9 -99.9 -999.9 -9.9 -9.999 -99.9 -99.99 -9.99
2019/08/16 10:36 EDT    3.09 -99.99 -999 -999 -999 -99.9 -99.9 -999.9 -9.9 -9.999 -99.9 -99.99 -9.99
2019/08/16 10:42 EDT    3.01 -99.99 -999 -999 -999 -99.9 -99.9 -999.9 -9.9 -9.999 -99.9 -99.99 -9.99
2019/08/16 10:48 EDT    2.93 -99.99 -999 -999 -999 -99.9 -99.9 -999.9 -9.9 -9.999 -99.9 -99.99 -9.99
2019/08/16 10:54 EDT    2.84 -99.99 -999 -999 -999 -99.9 -99.9 -999.9 -9.9 -9.999 -99.9 -99.99 -9.99
2019/08/16 11:00 EDT    2.75 -99.99 -999 -999 -999 -99.9 -99.9 -999.9 -9.9 -9.999 -99.9 -99.99 -9.99
2019/08/16 11:06 EDT    2.65 -99.99 -999 -999 -999 -99.9 -99.9 -999.9 -9.9 -9.999 -99.9 -99.99 -9.99
2019/08/16 11:12 EDT    2.55 -99.99 -999 -999 -999 -99.9 -99.9 -999.9 -9.9 -9.999 -99.9 -99.99 -9.99
2019/08/16 11:18 EDT    2.45 -99.99 -999 -999 -999 -99.9 -99.9 -999.9 -9.9 -9.999 -99.9 -99.99 -9.99
2019/08/16 11:24 EDT    2.35 -99.99 -999 -999 -999 -99.9 -99.9 -999.9 -9.9 -9.999 -99.9 -99.99 -9.99
2019/08/16 11:30 EDT    2.25 -99.99 -999 -999 -999 -99.9 -99.9 -999.9 -9.9 -9.999 -99.9 -99.99 -9.99
2019/08/16 11:36 EDT    2.14 -99.99 -999 -999 -999 -99.9 -99.9 -999.9 -9.9 -9.999 -99.9 -99.99 -9.99
2019/08/16 11:42 EDT    2.04 -99.99 -999 -999 -999 -99.9 -99.9 -999.9 -9.9 -9.999 -99.9 -99.99 -9.99
2019/08/16 11:48 EDT    1.93 -99.99 -999 -999 -999 -99.9 -99.9 -999.9 -9.9 -9.999 -99.9 -99.99 -9.99
2019/08/16 11:54 EDT    1.82 -99.99 -999 -999 -999 -99.9 -99.9 -999.9 -9.9 -9.999 -99.9 -99.99 -9.99
2019/08/16 12:00 EDT    1.72 -99.99 -999 -999 -999 -99.9 -99.9 -999.9 -9.9 -9.999 -99.9 -99.99 -9.99
2019/08/16 12:06 EDT    1.61 -99.99 -999 -999 -999 -99.9 -99.9 -999.9 -9.9 -9.999 -99.9 -99.99 -9.99
2019/08/16 12:12 EDT    1.51 -99.99 -999 -999 -999 -99.9 -99.9 -999.9 -9.9 -9.999 -99.9 -99.99 -9.99
2019/08/16 12:18 EDT    1.41 -99.99 -999 -999 -999 -99.9 -99.9 -999.9 -9.9 -9.999 -99.9 -99.99 -9.99
2019/08/16 12:24 EDT    1.31 -99.99 -999 -999 -999 -99.9 -99.9 -999.9 -9.9 -9.999 -99.9 -99.99 -9.99
2019/08/16 12:30 EDT    1.22 -99.99 -999 -999 -999 -99.9 -99.9 -999.9 -9.9 -9.999 -99.9 -99.99 -9.99
2019/08/16 12:36 EDT    1.13 -99.99 -999 -999 -999 -99.9 -99.9 -999.9 -9.9 -9.999 -99.9 -99.99 -9.99
2019/08/16 12:42 EDT    1.04 -99.99 -999 -999 -999 -99.9 -99.9 -999.9 -9.9 -9.999 -99.9 -99.99 -9.99
2019/08/16 12:48 EDT    0.96 -99.99 -999 -999 -999 -99.9 -99.9 -999.9 -9.9 -9.999 -99.9 -99.99 -9.99
2019/08/16 12:54 EDT    0.88 -99.99 -999 -999 -999 -99.9 -99.9 -999.9 -9.9 -9.999 -99.9 -99.99 -9.99
2019/08/16 13:00 EDT    0.80 -99.99 -999 -999 -999 -99.9 -99.9 -999.9 -9.9 -9.999 -99.9 -99.99 -9.99
2019/08/16 13:06 EDT    0.73 -99.99 -999 -999 -999 -99.9 -99.9 -999.9 -9.9 -9.999 -99.9 -99.99 -9.99
2019/08/16 13:12 EDT    0.67 -99.99 -999 -999 -999 -99.9 -99.9 -999.9 -9.9 -9.999 -99.9 -99.99 -9.99
2019/08/16 13:18 EDT    0.61 -99.99 -999 -999 -999 -99.9 -99.9 -999.9 -9.9 -9.999 -99.9 -99.99 -9.99
2019/08/16 13:24 EDT    0.55 -99.99 -999 -999 -999 -99.9 -99.9 -999.9 -9.9 -9.999 -99.9 -99.99 -9.99
2019/08/16 13:30 EDT    0.50 -99.99 -999 -999 -999 -99.9 -99.9 -999.9 -9.9 -9.999 -99.9 -99.99 -9.99
2019/08/16 13:36 EDT    0.46 -99.99 -999 -999 -999 -99.9 -99.9 -999.9 -9.9 -9.999 -99.9 -99.99 -9.99
2019/08/16 13:42 EDT    0.42 -99.99 -999 -999 -999 -99.9 -99.9 -999.9 -9.9 -9.999 -99.9 -99.99 -9.99
2019/08/16 13:48 EDT    0.38 -99.99 -999 -999 -999 -99.9 -99.9 -999.9 -9.9 -9.999 -99.9 -99.99 -9.99
2019/08/16 13:54 EDT    0.35 -99.99 -999 -999 -999 -99.9 -99.9 -999.9 -9.9 -9.999 -99.9 -99.99 -9.99
2019/08/16 14:00 EDT    0.33 -99.99 -999 -999 -999 -99.9 -99.9 -999.9 -9.9 -9.999 -99.9 -99.99 -9.99
2019/08/16 14:06 EDT    0.31 -99.99 -999 -999 -999 -99.9 -99.9 -999.9 -9.9 -9.999 -99.9 -99.99 -9.99
2019/08/16 14:12 EDT    0.29 -99.99 -999 -999 -999 -99.9 -99.9 -999.9 -9.9 -9.999 -99.9 -99.99 -9.99
2019/08/16 14:18 EDT    0.28 -99.99 -999 -999 -999 -99.9 -99.9 -999.9 -9.9 -9.999 -99.9 -99.99 -9.99
2019/08/16 14:24 EDT    0.27 -99.99 -999 -999 -999 -99.9 -99.9 -999.9 -9.9 -9.999 -99.9 -99.99 -9.99
2019/08/16 14:30 EDT    0.27 -99.99 -999 -999 -999 -99.9 -99.9 -999.9 -9.9 -9.999 -99.9 -99.99 -9.99
2019/08/16 14:36 EDT    0.27 -99.99 -999 -999 -999 -99.9 -99.9 -999.9 -9.9 -9.999 -99.9 -99.99 -9.99
2019/08/16 14:42 EDT    0.27 -99.99 -999 -999 -999 -99.9 -99.9 -999.9 -9.9 -9.999 -99.9 -99.99 -9.99
2019/08/16 14:48 EDT    0.28 -99.99 -999 -999 -999 -99.9 -99.9 -999.9 -9.9 -9.999 -99.9 -99.99 -9.99
2019/08/16 14:54 EDT    0.29 -99.99 -999 -999 -999 -99.9 -99.9 -999.9 -9.9 -9.999 -99.9 -99.99 -9.99
2019/08/16 15:00 EDT    0.30 -99.99 -999 -999 -999 -99.9 -99.9 -999.9 -9.9 -9.999 -99.9 -99.99 -9.99
2019/08/16 15:06 EDT    0.32 -99.99 -999 -999 -999 -99.9 -99.9 -999.9 -9.9 -9.999 -99.9 -99.99 -9.99
2019/08/16 15:12 EDT    0.34 -99.99 -999 -999 -999 -99.9 -99.9 -999.9 -9.9 -9.999 -99.9 -99.99 -9.99
2019/08/16 15:18 EDT    0.36 -99.99 -999 -999 -999 -99.9 -99.9 -999.9 -9.9 -9.999 -99.9 -99.99 -9.99
2019/08/16 15:24 EDT    0.38 -99.99 -999 -999 -999 -99.9 -99.9 -999.9 -9.9 -9.999 -99.9 -99.99 -9.99
2019/08/16 15:30 EDT    0.41 -99.99 -999 -999 -999 -99.9 -99.9 -999.9 -9.9 -9.999 -99.9 -99.99 -9.99
2019/08/16 15:36 EDT    0.44 -99.99 -999 -999 -999 -99.9 -99.9 -999.9 -9.9 -9.999 -99.9 -99.99 -9.99
2019/08/16 15:42 EDT    0.47 -99.99 -999 -999 -999 -99.9 -99.9 -999.9 -9.9 -9.999 -99.9 -99.99 -9.99
2019/08/16 15:48 EDT    0.50 -99.99 -999 -999 -999 -99.9 -99.9 -999.9 -9.9 -9.999 -99.9 -99.99 -9.99
2019/08/16 15:54 EDT    0.54 -99.99 -999 -999 -999 -99.9 -99.9 -999.9 -9.9 -9.999 -99.9 -99.99 -9.99
2019/08/16 16:00 EDT    0.57 -99.99 -999 -999 -999 -99.9 -99.9 -999.9 -9.9 -9.999 -99.9 -99.99 -9.99
2019/08/16 16:06 EDT    0.61 -99.99 -999 -999 -999 -99.9 -99.9 -999.9 -9.9 -9.999 -99.9 -99.99 -9.99
2019/08/16 16:12 EDT    0.65 -99.99 -999 -999 -999 -99.9 -99.9 -999.9 -9.9 -9.999 -99.9 -99.99 -9.99
2019/08/16 16:18 EDT    0.70 -99.99 -999 -999 -999 -99.9 -99.9 -999.9 -9.9 -9.999 -99.9 -99.99 -9.99
2019/08/16 16:24 EDT    0.74   1.15    9  145   11  69.3  66.4 1018.1 29.5  1.022 -99.9 -99.99 -9.99
2019/08/16 16:30 EDT    0.79   1.27    7  173   11  69.6  66.6 1018.1 29.5  1.022 -99.9 -99.99 -9.99
2019/08/16 16:36 EDT    0.84   1.29    6  137   11  69.8  66.7 1018.2 29.4  1.022 -99.9 -99.99 -9.99
2019/08/16 16:42 EDT    0.89   1.39    9  164   10  69.6  66.6 1018.2 29.5  1.022 -99.9 -99.99 -9.99
2019/08/16 16:48 EDT    0.94   1.45    8  163   11  69.3  66.9 1018.2 29.4  1.022 -99.9 -99.99 -9.99
2019/08/16 16:54 EDT    0.99   1.57    8  149   11  69.3  66.7 1018.2 29.4  1.022 -99.9 -99.99 -9.99
2019/08/16 17:00 EDT    1.05   1.57    7  167   11  68.9  66.9 1018.2 29.5  1.022 -99.9 -99.99 -9.99
2019/08/16 17:06 EDT    1.11   1.63    8  178   10  69.1  66.7 1018.2 29.4  1.022 -99.9 -99.99 -9.99
2019/08/16 17:12 EDT    1.17   1.68    7  186   10  69.1  66.7 1018.1 29.5  1.022 -99.9 -99.99 -9.99
2019/08/16 17:18 EDT    1.23   1.74    7  178    8  69.1  66.7 1018.1 29.5  1.022 -99.9 -99.99 -9.99
2019/08/16 17:24 EDT    1.29   1.78    6  146   11  68.5  66.6 1018.1 29.4  1.022 -99.9 -99.99 -9.99
2019/08/16 17:30 EDT    1.36   1.86    6  152    8  68.7  66.6 1018.0 29.5  1.022 -99.9 -99.99 -9.99
2019/08/16 17:36 EDT    1.43   2.00    6  140   10  68.5  66.9 1018.1 29.5  1.022 -99.9 -99.99 -9.99
2019/08/16 17:42 EDT    1.49   2.08    6  137    8  68.9  66.7 1018.0 29.5  1.022 -99.9 -99.99 -9.99
2019/08/16 17:48 EDT    1.57   2.15    9  161   11  68.9  66.7 1017.9 29.4  1.022 -99.9 -99.99 -9.99
2019/08/16 17:54 EDT    1.64   2.25    8  145   11  68.9  66.9 1017.9 29.5  1.022 -99.9 -99.99 -9.99
2019/08/16 18:00 EDT    1.71   2.30    6  150   11  69.1  66.9 1017.8 29.4  1.022 -99.9 -99.99 -9.99
2019/08/16 18:06 EDT    1.79   2.39    7  158   11  68.5  66.7 1017.8 29.4  1.022 -99.9 -99.99 -9.99
2019/08/16 18:12 EDT    1.86   2.48    5  150   10  68.5  66.7 1017.8 29.5  1.022 -99.9 -99.99 -9.99
2019/08/16 18:18 EDT    1.94   2.55    8  166   10  68.5  66.9 1017.7 29.4  1.022 -99.9 -99.99 -9.99
2019/08/16 18:24 EDT    2.02   2.68    6  147   10  68.7  66.9 1017.8 29.4  1.022 -99.9 -99.99 -9.99
2019/08/16 18:30 EDT    2.10   2.76    7  165    9  68.5  66.7 1017.8 29.4  1.022 -99.9 -99.99 -9.99
2019/08/16 18:36 EDT    2.18   2.82    8  169   10  68.2  66.7 1017.8 29.5  1.022 -99.9 -99.99 -9.99
2019/08/16 18:42 EDT    2.26   2.87    6  153   10  68.0  66.7 1017.8 29.5  1.022 -99.9 -99.99 -9.99
2019/08/16 18:48 EDT    2.34   2.93    7  135   10  67.5  66.7 1017.7 29.4  1.022 -99.9 -99.99 -9.99
2019/08/16 18:54 EDT    2.42   3.03    6  163    9  67.1  66.7 1017.9 29.5  1.022 -99.9 -99.99 -9.99
2019/08/16 19:00 EDT    2.51   3.07    5  163    8  67.1  66.7 1018.0 29.5  1.022 -99.9 -99.99 -9.99
2019/08/16 19:06 EDT    2.59   3.14    7  161   11  66.7  66.9 1018.0 29.4  1.022 -99.9 -99.99 -9.99
2019/08/16 19:12 EDT    2.67   3.25    6  175    9  66.7  66.9 1018.0 29.4  1.022 -99.9 -99.99 -9.99
2019/08/16 19:18 EDT    2.75   3.30    6  163    9  66.9  66.9 1018.0 29.4  1.022 -99.9 -99.99 -9.99
2019/08/16 19:24 EDT    2.83   3.33    7  141    9  66.7  66.9 1017.9 29.4  1.022 -99.9 -99.99 -9.99
2019/08/16 19:30 EDT    2.91   3.45    7  142    8  66.7  66.9 1018.0 29.5  1.022 -99.9 -99.99 -9.99
2019/08/16 19:36 EDT    2.98   3.49    6  152    9  67.1  66.9 1018.0 29.4  1.022 -99.9 -99.99 -9.99
2019/08/16 19:42 EDT    3.06   3.54    4  152    9  67.1  66.9 1017.8 29.4  1.022 -99.9 -99.99 -9.99
2019/08/16 19:48 EDT    3.13   3.60    7  147    9  66.9  66.9 1017.8 29.4  1.022 -99.9 -99.99 -9.99
2019/08/16 19:54 EDT    3.20   3.66    5  132    9  67.1  66.9 1017.7 29.5  1.022 -99.9 -99.99 -9.99
2019/08/16 20:00 EDT    3.27   3.75    4  122    5  67.1  66.9 1017.8 29.5  1.022 -99.9 -99.99 -9.99
2019/08/16 20:06 EDT    3.34   3.83    6  135    9  67.3  66.9 1017.7 29.5  1.022 -99.9 -99.99 -9.99
2019/08/16 20:12 EDT    3.40   3.83    5  143    9  67.3  66.9 1017.7 29.5  1.022 -99.9 -99.99 -9.99
2019/08/16 20:18 EDT    3.46   3.89    5  129    8  67.3  66.7 1017.7 29.5  1.022 -99.9 -99.99 -9.99
2019/08/16 20:24 EDT    3.52   4.03    5  128    9  67.3  66.9 1017.8 29.5  1.022 -99.9 -99.99 -9.99
2019/08/16 20:30 EDT    3.57   4.01    5  106    7  67.3  66.7 1017.8 29.5  1.022 -99.9 -99.99 -9.99
2019/08/16 20:36 EDT    3.62   4.03    5  130    8  67.5  66.7 1017.8 29.5  1.022 -99.9 -99.99 -9.99
2019/08/16 20:42 EDT    3.66   4.08    4  137    6  67.5  66.7 1017.9 29.5  1.022 -99.9 -99.99 -9.99
2019/08/16 20:48 EDT    3.70   4.08    3  135    7  67.5  66.7 1017.8 29.5  1.022 -99.9 -99.99 -9.99
2019/08/16 20:54 EDT    3.74   4.09    3  118    6  67.5  66.7 1017.9 29.5  1.022 -99.9 -99.99 -9.99
2019/08/16 21:00 EDT    3.77   4.23    5  117    7  67.5  66.7 1017.9 29.5  1.022 -99.9 -99.99 -9.99
2019/08/16 21:06 EDT    3.79   4.26    3  131    7  67.5  66.9 1017.9 29.5  1.022 -99.9 -99.99 -9.99
2019/08/16 21:12 EDT    3.81   4.23    4  132    8  67.5  66.7 1017.9 29.6  1.022 -99.9 -99.99 -9.99
2019/08/16 21:18 EDT    3.82   4.27    4  143    6  67.8  66.9 1017.9 29.5  1.022 -99.9 -99.99 -9.99
2019/08/16 21:24 EDT    3.83   4.22    4  131    7  68.0  66.7 1017.9 29.5  1.022 -99.9 -99.99 -9.99
2019/08/16 21:30 EDT    3.83   4.28    3  141    6  68.0  66.7 1018.0 29.5  1.022 -99.9 -99.99 -9.99
2019/08/16 21:36 EDT    3.83   4.28    4  140    7  68.4  66.7 1018.0 29.5  1.022 -99.9 -99.99 -9.99
2019/08/16 21:42 EDT    3.82   4.22    7  133    8  68.5  66.7 1017.9 29.5  1.022 -99.9 -99.99 -9.99
2019/08/16 21:48 EDT    3.81   4.22    8  132   11  68.5  66.7 1017.8 29.5  1.022 -99.9 -99.99 -9.99
2019/08/16 21:54 EDT    3.79   4.25    6  157   11  68.7  66.7 1018.0 29.4  1.022 -99.9 -99.99 -9.99
2019/08/16 22:00 EDT    3.76   4.18    8  152   10  68.7  66.6 1018.0 29.6  1.022 -99.9 -99.99 -9.99
2019/08/16 22:06 EDT    3.73   4.22    5  159    9  68.7  66.7 1018.1 29.5  1.022 -99.9 -99.99 -9.99
2019/08/16 22:12 EDT    3.69   4.15    6  133    8  68.7  66.4 1018.1 29.6  1.022 -99.9 -99.99 -9.99
2019/08/16 22:18 EDT    3.65   4.07    5  145    8  68.7  66.6 1018.2 29.6  1.022 -99.9 -99.99 -9.99
2019/08/16 22:24 EDT    3.60   4.10    5  149    7  68.7  66.2 1018.1 29.6  1.022 -99.9 -99.99 -9.99
2019/08/16 22:30 EDT    3.55   4.12    7  151    9  68.7  66.6 1018.1 29.6  1.022 -99.9 -99.99 -9.99
2019/08/16 22:36 EDT    3.49   4.05    6  138    8  68.7  66.4 1018.1 29.6  1.022 -99.9 -99.99 -9.99
2019/08/16 22:42 EDT    3.43   3.98    5  131    8  68.5  66.4 1018.2 29.6  1.022 -99.9 -99.99 -9.99
2019/08/16 22:48 EDT    3.36   3.91    5  130    8  68.5  66.7 1018.2 29.6  1.022 -99.9 -99.99 -9.99
2019/08/16 22:54 EDT    3.28   3.83    5  130    8  68.5  66.7 1018.2 29.5  1.022 -99.9 -99.99 -9.99
2019/08/16 23:00 EDT    3.20   3.77    6  152    8  68.7  66.6 1018.3 29.6  1.022 -99.9 -99.99 -9.99
2019/08/16 23:06 EDT    3.12   3.71    6  150   11  68.7  66.6 1018.5 29.5  1.022 -99.9 -99.99 -9.99
2019/08/16 23:12 EDT    3.03   3.69    7  161    8  68.7  66.6 1018.7 29.5  1.022 -99.9 -99.99 -9.99
2019/08/16 23:18 EDT    2.94   3.53    4  149    8  68.7  66.6 1018.7 29.5  1.022 -99.9 -99.99 -9.99
2019/08/16 23:24 EDT    2.85   3.48    5  131    6  68.7  66.6 1018.8 29.5  1.022 -99.9 -99.99 -9.99
2019/08/16 23:30 EDT    2.75   3.46    5  142    7  68.7  66.6 1018.8 29.5  1.022 -99.9 -99.99 -9.99
2019/08/16 23:36 EDT    2.65   3.38    5  130    7  68.7  66.4 1018.8 29.6  1.022 -99.9 -99.99 -9.99
2019/08/16 23:42 EDT    2.55   3.21    4  122    6  68.7  66.4 1018.8 29.6  1.022 -99.9 -99.99 -9.99
2019/08/16 23:48 EDT    2.44   3.06    5  125    6  68.7  66.6 1018.8 29.5  1.022 -99.9 -99.99 -9.99
2019/08/16 23:54 EDT    2.34   3.03    5  129    7  68.5  66.6 1018.8 29.5  1.022 -99.9 -99.99 -9.99
2019/08/17 00:00 EDT    2.23   2.92    4  134    9  68.5  66.6 1018.7 29.5  1.022 -99.9 -99.99 -9.99
2019/08/17 00:06 EDT    2.12   2.80    5  122    6  68.5  66.6 1018.6 29.4  1.022 -99.9 -99.99 -9.99
2019/08/17 00:12 EDT    2.02   2.72    6  108    7  68.4  66.4 1018.6 29.5  1.022 -99.9 -99.99 -9.99
2019/08/17 00:18 EDT    1.91   2.59    4  115    7  68.5  66.4 1018.6 29.5  1.022 -99.9 -99.99 -9.99
2019/08/17 00:24 EDT    1.80   2.44    6  129    7  68.5  66.6 1018.7 29.5  1.022 -99.9 -99.99 -9.99
2019/08/17 00:30 EDT    1.69   2.37    5  125    7  68.4  66.6 1018.6 29.4  1.022 -99.9 -99.99 -9.99
2019/08/17 00:36 EDT    1.59   2.26    6  130    7  68.4  66.4 1018.6 29.4  1.022 -99.9 -99.99 -9.99
2019/08/17 00:42 EDT    1.49   2.14    6  128    8  68.4  66.6 1018.6 29.5  1.022 -99.9 -99.99 -9.99
2019/08/17 00:48 EDT    1.39   2.02    6  140    7  68.2  66.6 1018.6 29.5  1.022 -99.9 -99.99 -9.99
2019/08/17 00:54 EDT    1.29   1.95    4  136    7  68.0  66.6 1018.6 29.4  1.022 -99.9 -99.99 -9.99
2019/08/17 01:00 EDT    1.19   1.87    6  134    7  67.8  66.6 1018.7 29.5  1.022 -99.9 -99.99 -9.99
2019/08/17 01:06 EDT    1.10   1.76    5  132    9  67.6  66.6 1018.7 29.5  1.022 -99.9 -99.99 -9.99
2019/08/17 01:12 EDT    1.02   1.68    6  125    9  67.5  66.6 1018.6 29.5  1.022 -99.9 -99.99 -9.99
2019/08/17 01:18 EDT    0.93   1.59    7  132    8  67.5  66.6 1018.6 29.4  1.022 -99.9 -99.99 -9.99
2019/08/17 01:24 EDT    0.85   1.45    7  138    9  67.5  66.6 1018.5 29.4  1.022 -99.9 -99.99 -9.99
2019/08/17 01:30 EDT    0.78   1.35    7  139   10  67.3  66.4 1018.4 29.5  1.022 -99.9 -99.99 -9.99
2019/08/17 01:36 EDT    0.71   1.30    5  126   10  67.5  66.4 1018.4 29.5  1.022 -99.9 -99.99 -9.99
2019/08/17 01:42 EDT    0.64   1.17    7  136   11  67.3  66.6 1018.2 29.4  1.022 -99.9 -99.99 -9.99
2019/08/17 01:48 EDT    0.58   1.18    6  133    9  67.3  66.4 1018.2 29.5  1.022 -99.9 -99.99 -9.99
2019/08/17 01:54 EDT    0.53   1.09    6  116   10  67.3  66.4 1018.1 29.5  1.022 -99.9 -99.99 -9.99
2019/08/17 02:00 EDT    0.48   0.97    6  126    9  67.3  66.4 1018.1 29.3  1.022 -99.9 -99.99 -9.99
2019/08/17 02:06 EDT    0.43   0.97    6  126   10  67.3  66.4 1018.1 29.5  1.022 -99.9 -99.99 -9.99
2019/08/17 02:12 EDT    0.39   0.90    5  132    7  67.5  66.4 1018.2 29.5  1.022 -99.9 -99.99 -9.99
2019/08/17 02:18 EDT    0.35   0.91    5  134    9  67.5  66.4 1018.1 29.5  1.022 -99.9 -99.99 -9.99
2019/08/17 02:24 EDT    0.32   0.82    5  128    7  67.5  66.4 1018.1 29.4  1.022 -99.9 -99.99 -9.99
2019/08/17 02:30 EDT    0.30   0.78    4  118    7  67.6  66.4 1018.2 29.4  1.022 -99.9 -99.99 -9.99
2019/08/17 02:36 EDT    0.27   0.82    6  115    9  67.5  66.2 1018.2 29.5  1.022 -99.9 -99.99 -9.99
2019/08/17 02:42 EDT    0.26   0.85    4  118    9  67.5  66.2 1018.3 29.5  1.022 -99.9 -99.99 -9.99
2019/08/17 02:48 EDT    0.24   0.81    4  129    7  67.5  66.2 1018.3 29.4  1.022 -99.9 -99.99 -9.99
2019/08/17 02:54 EDT    0.23   0.79    5  123    6  67.5  66.2 1018.3 29.4  1.022 -99.9 -99.99 -9.99
2019/08/17 03:00 EDT    0.23   0.72    5  116    8  67.5  66.0 1018.2 29.5  1.022 -99.9 -99.99 -9.99
2019/08/17 03:06 EDT    0.22   0.72    5  129    8  67.5  65.8 1018.2 29.5  1.022 -99.9 -99.99 -9.99
2019/08/17 03:12 EDT    0.22   0.81    5  133    7  67.5  65.7 1018.2 29.5  1.022 -99.9 -99.99 -9.99
2019/08/17 03:18 EDT    0.23   0.70    4  117    6  67.5  66.0 1018.2 29.4  1.022 -99.9 -99.99 -9.99
2019/08/17 03:24 EDT    0.23   0.77    4  131    7  67.5  65.8 1018.3 29.5  1.022 -99.9 -99.99 -9.99
2019/08/17 03:30 EDT    0.25   0.78    5   98    6  67.6  65.5 1018.2 29.5  1.022 -99.9 -99.99 -9.99
2019/08/17 03:36 EDT    0.26   0.76    4  101    6  67.6  65.5 1018.1 29.5  1.022 -99.9 -99.99 -9.99
2019/08/17 03:42 EDT    0.27   0.83    2  102    5  67.8  65.3 1018.3 29.6  1.022 -99.9 -99.99 -9.99
2019/08/17 03:48 EDT    0.29   0.80    3   86    6  67.6  65.1 1018.2 29.5  1.022 -99.9 -99.99 -9.99
2019/08/17 03:54 EDT    0.31   0.80    4   89    6  67.6  65.3 1018.1 29.6  1.022 -99.9 -99.99 -9.99
2019/08/17 04:00 EDT    0.34   0.87    3   71    5  67.5  65.3 1018.2 29.6  1.022 -99.9 -99.99 -9.99
2019/08/17 04:06 EDT    0.36   0.88    2   68    4  67.5  65.5 1018.2 29.6  1.022 -99.9 -99.99 -9.99
2019/08/17 04:12 EDT    0.39   0.91    2   62    4  67.6  65.3 1018.1 29.6  1.022 -99.9 -99.99 -9.99
2019/08/17 04:18 EDT    0.42   1.00    3   89    4  67.6  65.3 1018.2 29.6  1.022 -99.9 -99.99 -9.99
2019/08/17 04:24 EDT    0.46   1.01    4   81    5  67.5  65.1 1018.1 29.4  1.022 -99.9 -99.99 -9.99
2019/08/17 04:30 EDT    0.49   0.96    1   87    5  67.6  65.1 1018.1 29.6  1.022 -99.9 -99.99 -9.99
2019/08/17 04:36 EDT    0.53   1.10    3  107    4  67.6  64.9 1018.1 29.5  1.022 -99.9 -99.99 -9.99
2019/08/17 04:42 EDT    0.57   1.06    2  128    4  67.8  65.1 1018.0 29.5  1.022 -99.9 -99.99 -9.99
2019/08/17 04:48 EDT    0.61   1.10    4  104    5  67.8  64.8 1018.0 29.6  1.022 -99.9 -99.99 -9.99
2019/08/17 04:54 EDT    0.65   1.18    4  100    5  68.0  64.6 1018.0 29.6  1.022 -99.9 -99.99 -9.99
2019/08/17 05:00 EDT    0.70   1.17    4  105    6  68.0  64.8 1017.9 29.5  1.022 -99.9 -99.99 -9.99
2019/08/17 05:06 EDT    0.75   1.20    4  101    6  68.0  64.8 1018.0 29.6  1.022 -99.9 -99.99 -9.99
2019/08/17 05:12 EDT    0.80   1.28    4   94    5  68.0  64.6 1017.9 29.6  1.022 -99.9 -99.99 -9.99
2019/08/17 05:18 EDT    0.85   1.37    5   98    6  68.2  64.6 1017.9 29.7  1.022 -99.9 -99.99 -9.99
2019/08/17 05:24 EDT    0.91   1.42    5   86    6  68.0  64.8 1017.9 29.7  1.022 -99.9 -99.99 -9.99
2019/08/17 05:30 EDT    0.97   1.50    3   75    6  68.2  64.6 1017.9 29.7  1.022 -99.9 -99.99 -9.99
2019/08/17 05:36 EDT    1.03   1.58    3   60    6  68.2  64.6 1017.9 29.8  1.022 -99.9 -99.99 -9.99
2019/08/17 05:42 EDT    1.09   1.60    4   83    5  68.2  64.8 1017.9 29.7  1.022 -99.9 -99.99 -9.99
2019/08/17 05:48 EDT    1.15   1.71    3   86    5  68.2  65.5 1018.0 29.6  1.022 -99.9 -99.99 -9.99
2019/08/17 05:54 EDT    1.22   1.74    3   90    4  68.2  64.9 1018.0 29.7  1.022 -99.9 -99.99 -9.99
2019/08/17 06:00 EDT    1.28   1.82    4   97    5  68.2  65.1 1018.0 29.7  1.022 -99.9 -99.99 -9.99
2019/08/17 06:06 EDT    1.35   1.87    5  102    6  68.2  65.1 1018.0 29.7  1.022 -99.9 -99.99 -9.99
2019/08/17 06:12 EDT    1.42   1.93    4  100    6  68.2  64.9 1018.1 29.7  1.022 -99.9 -99.99 -9.99
2019/08/17 06:18 EDT    1.50   2.05    4   80    5  68.2  65.1 1018.1 29.6  1.022 -99.9 -99.99 -9.99
2019/08/17 06:24 EDT    1.57   2.07    3   71    5  68.2  65.3 1018.1 29.7  1.022 -99.9 -99.99 -9.99
2019/08/17 06:30 EDT    1.64   2.19    3   74    4  68.2  65.1 1018.2 29.6  1.022 -99.9 -99.99 -9.99
2019/08/17 06:36 EDT    1.72   2.24    3   74    4  68.2  65.1 1018.2 29.6  1.022 -99.9 -99.99 -9.99
2019/08/17 06:42 EDT    1.80   2.33    4   82    5  68.2  64.9 1018.1 29.7  1.022 -99.9 -99.99 -9.99
2019/08/17 06:48 EDT    1.88   2.43    4   84    5  68.2  65.1 1018.2 29.6  1.022 -99.9 -99.99 -9.99
2019/08/17 06:54 EDT    1.96   2.52    3   66    4  68.4  64.9 1018.2 29.7  1.022 -99.9 -99.99 -9.99
2019/08/17 07:00 EDT    2.04   2.59    4   62    4  68.4  64.9 1018.1 29.7  1.022 -99.9 -99.99 -9.99
2019/08/17 07:06 EDT    2.12   2.67    4   75    5  68.4  64.9 1018.0 29.7  1.022 -99.9 -99.99 -9.99
2019/08/17 07:12 EDT    2.20   2.80    4   72    5  68.5  64.9 1018.0 29.7  1.022 -99.9 -99.99 -9.99
2019/08/17 07:18 EDT    2.28   2.81    4   82    6  68.4  64.9 1018.0 29.7  1.022 -99.9 -99.99 -9.99
2019/08/17 07:24 EDT    2.36   2.92    5   71    6  68.4  64.9 1017.9 29.7  1.022 -99.9 -99.99 -9.99
2019/08/17 07:30 EDT    2.44   3.05    4   52    5  68.5  64.9 1017.9 29.7  1.022 -99.9 -99.99 -9.99
2019/08/17 07:36 EDT    2.52   3.07    4   49    6  68.5  65.1 1017.9 29.6  1.022 -99.9 -99.99 -9.99
2019/08/17 07:42 EDT    2.60   3.12    3   76    6  68.5  65.1 1018.0 29.6  1.022 -99.9 -99.99 -9.99
2019/08/17 07:48 EDT    2.67   3.23    3   62    4  68.5  64.9 1018.1 29.7  1.022 -99.9 -99.99 -9.99
2019/08/17 07:54 EDT    2.75   3.31    3   70    5  68.5  64.9 1018.1 29.7  1.022 -99.9 -99.99 -9.99
2019/08/17 08:00 EDT    2.83   3.35    5  100    6  68.5  65.1 1018.1 29.7  1.022 -99.9 -99.99 -9.99
2019/08/17 08:06 EDT    2.90   3.45    5  101    7  68.5  65.1 1018.1 29.7  1.022 -99.9 -99.99 -9.99
2019/08/17 08:12 EDT    2.97   3.53    5  116    6  68.5  64.9 1018.1 29.7  1.022 -99.9 -99.99 -9.99
2019/08/17 08:18 EDT    3.04   3.55    4  106    6  68.5  65.1 1018.1 29.6  1.022 -99.9 -99.99 -9.99
2019/08/17 08:24 EDT    3.11   3.67    5   80    6  68.5  65.1 1018.1 29.7  1.022 -99.9 -99.99 -9.99
2019/08/17 08:30 EDT    3.17   3.73    5   87    7  68.5  65.1 1018.0 29.7  1.022 -99.9 -99.99 -9.99
2019/08/17 08:36 EDT    3.23   3.70    4   68    6  68.9  65.1 1017.9 29.6  1.022 -99.9 -99.99 -9.99
2019/08/17 08:42 EDT    3.28   3.83    4   79    5  68.9  65.1 1018.0 29.7  1.022 -99.9 -99.99 -9.99
2019/08/17 08:48 EDT    3.34   3.95    5   87    6  69.1  65.1 1018.0 29.7  1.022 -99.9 -99.99 -9.99
2019/08/17 08:54 EDT    3.39   3.94    6  113    7  69.1  65.1 1017.9 29.7  1.022 -99.9 -99.99 -9.99
2019/08/17 09:00 EDT    3.43   4.05    6  112    8  69.3  65.1 1017.8 29.7  1.022 -99.9 -99.99 -9.99
2019/08/17 09:06 EDT    3.47   4.06    4   91    7  69.4  65.1 1017.9 29.7  1.022 -99.9 -99.99 -9.99
2019/08/17 09:12 EDT    3.50   4.00    6  128    7  69.6  65.1 1017.8 29.7  1.022 -99.9 -99.99 -9.99
2019/08/17 09:18 EDT    3.54   4.07    5  114    8  69.8  65.1 1017.9 29.7  1.022 -99.9 -99.99 -9.99
2019/08/17 09:24 EDT    3.56   4.13    5  104    7  70.2  65.1 1018.0 29.7  1.022 -99.9 -99.99 -9.99
2019/08/17 09:30 EDT    3.58   4.13    4   99    7  70.3  65.1 1018.0 29.7  1.022 -99.9 -99.99 -9.99
2019/08/17 09:36 EDT    3.60   4.16    3  111    6  70.7  65.1 1017.9 29.7  1.022 -99.9 -99.99 -9.99
2019/08/17 09:42 EDT    3.61   4.14    5  104    9  70.3  65.1 1017.9 29.7  1.022 -99.9 -99.99 -9.99
2019/08/17 09:48 EDT    3.61   4.16    5  117    9  70.5  65.1 1018.0 29.7  1.022 -99.9 -99.99 -9.99
2019/08/17 09:54 EDT    3.61   4.18    7  101    9  70.3  65.1 1018.1 29.6  1.022 -99.9 -99.99 -9.99
2019/08/17 10:00 EDT    3.60   4.14    4  118    9  70.5  65.1 1018.1 29.6  1.022 -99.9 -99.99 -9.99
2019/08/17 10:06 EDT    3.59   4.09    7  135    9  70.5  65.1 1018.1 29.7  1.022 -99.9 -99.99 -9.99
2019/08/17 10:12 EDT    3.57   4.17    8  120   10  70.5  65.3 1018.2 29.6  1.022 -99.9 -99.99 -9.99
2019/08/17 10:18 EDT    3.55   4.10    7  118   10  70.5  65.3 1018.1 29.6  1.022 -99.9 -99.99 -9.99
2019/08/17 10:24 EDT    3.52   4.07    5  107    9  71.1  65.1 1018.2 29.7  1.022 -99.9 -99.99 -9.99
2019/08/17 10:30 EDT    3.48   4.06    7  113    9  70.9  65.1 1018.2 29.6  1.022 -99.9 -99.99 -9.99
2019/08/17 10:36 EDT    3.44   4.00    4  101    9  71.1  65.1 1018.1 29.7  1.022 -99.9 -99.99 -9.99
2019/08/17 10:42 EDT    3.40   3.90    6  107    8  71.4  65.3 1018.1 29.6  1.022 -99.9 -99.99 -9.99
2019/08/17 10:48 EDT    3.35   3.87    4  130    7  72.1  65.3 1018.2 29.6  1.022 -99.9 -99.99 -9.99
2019/08/17 10:54 EDT    3.29   3.89    9  110   10  71.8  65.3 1018.0 29.5  1.022 -99.9 -99.99 -9.99
2019/08/17 11:00 EDT    3.23   3.78    8  124   11  72.3  65.3 1017.9 29.6  1.022 -99.9 -99.99 -9.99
2019/08/17 11:06 EDT    3.17   3.78    5  124   10  72.3  65.3 1018.0 29.6  1.022 -99.9 -99.99 -9.99
2019/08/17 11:12 EDT    3.10   3.72    6  132    9  72.7  65.5 1018.1 29.6  1.022 -99.9 -99.99 -9.99
2019/08/17 11:18 EDT    3.03   3.67    8  106   10  72.1  65.5 1018.2 29.6  1.022 -99.9 -99.99 -9.99
2019/08/17 11:24 EDT    2.95   3.62    7  134    9  72.5  65.5 1018.2 29.6  1.022 -99.9 -99.99 -9.99
2019/08/17 11:30 EDT    2.87   3.49    5  115   12  72.3  65.5 1018.2 29.6  1.022 -99.9 -99.99 -9.99
2019/08/17 11:36 EDT    2.78   3.42    9  115   11  71.8  65.7 1018.2 29.6  1.022 -99.9 -99.99 -9.99
2019/08/17 11:42 EDT    2.69   3.35    7  132   11  72.1  65.7 1018.2 29.5  1.022 -99.9 -99.99 -9.99
2019/08/17 11:48 EDT    2.60 -99.99    9  136   11  71.6  65.7 1018.2 29.6  1.022 -99.9 -99.99 -9.99
2019/08/17 11:54 EDT    2.51   3.17    6  120   11  71.4  65.7 1018.2 29.6  1.022 -99.9 -99.99 -9.99
2019/08/17 12:00 EDT    2.41   3.13    7  121    9  71.6  65.7 1018.1 29.6  1.022 -99.9 -99.99 -9.99
2019/08/17 12:06 EDT    2.31   2.97    9  105   10  71.6  65.8 1018.0 29.5  1.022 -99.9 -99.99 -9.99
2019/08/17 12:12 EDT    2.21   2.82    5  116   10  71.8  65.7 1018.0 29.5  1.022 -99.9 -99.99 -9.99
2019/08/17 12:18 EDT    2.11   2.75    8  121    9  72.1  65.8 1018.0 29.6  1.022 -99.9 -99.99 -9.99
2019/08/17 12:24 EDT    2.01   2.67    6  122   11  72.1  66.0 1018.0 29.5  1.022 -99.9 -99.99 -9.99
2019/08/17 12:30 EDT    1.91   2.45    7  103   10  71.6  66.0 1018.0 29.5  1.022 -99.9 -99.99 -9.99
2019/08/17 12:36 EDT    1.81   2.44    5  116    8  72.0  65.8 1017.9 29.6  1.022 -99.9 -99.99 -9.99
2019/08/17 12:42 EDT    1.71   2.35    6  131   11  72.1  66.0 1017.9 29.6  1.022 -99.9 -99.99 -9.99
2019/08/17 12:48 EDT    1.61 -99.99    7  116   12  71.8  66.0 1017.8 29.5  1.022 -99.9 -99.99 -9.99
2019/08/17 12:54 EDT    1.51 -99.99    9  118   11  71.8  65.8 1017.8 29.6  1.022 -99.9 -99.99 -9.99
2019/08/17 13:00 EDT    1.41 -99.99    7  123   12  72.1  66.0 1017.8 29.5  1.022 -99.9 -99.99 -9.99
2019/08/17 13:06 EDT    1.32 -99.99    7  128   10  72.1  66.2 1017.9 29.5  1.022 -99.9 -99.99 -9.99
2019/08/17 13:12 EDT    1.23 -99.99    6  110    9  72.5  66.0 1017.8 29.5  1.022 -99.9 -99.99 -9.99
2019/08/17 13:18 EDT    1.14 -99.99    7  102   10  72.3  66.2 1017.7 29.5  1.022 -99.9 -99.99 -9.99
2019/08/17 13:24 EDT    1.05 -99.99    6  110   11  72.7  66.2 1017.8 29.5  1.022 -99.9 -99.99 -9.99
2019/08/17 13:30 EDT    0.97 -99.99    8  100   10  72.3  66.2 1017.8 29.5  1.022 -99.9 -99.99 -9.99
2019/08/17 13:36 EDT    0.89 -99.99    8  110   10  72.3  66.4 1017.9 29.6  1.022 -99.9 -99.99 -9.99
2019/08/17 13:42 EDT    0.82 -99.99    6  116   10  72.5  66.4 1017.9 29.5  1.022 -99.9 -99.99 -9.99
2019/08/17 13:48 EDT    0.75 -99.99    7  114    9  72.7  66.4 1017.8 29.5  1.022 -99.9 -99.99 -9.99
2019/08/17 13:54 EDT    0.68   1.29    7   94   11  72.7  66.4 1017.8 29.5  1.022 -99.9 -99.99 -9.99
2019/08/17 14:00 EDT    0.62   1.20    7  108   10  72.7  66.4 1017.8 29.5  1.022 -99.9 -99.99 -9.99
2019/08/17 14:06 EDT    0.57   1.13    7   92   10  73.2  66.4 1017.8 29.5  1.022 -99.9 -99.99 -9.99
2019/08/17 14:12 EDT    0.52   1.08    7  112   10  73.8  66.4 1017.7 29.5  1.022 -99.9 -99.99 -9.99
2019/08/17 14:18 EDT    0.47   1.00    6   97   11  73.8  66.4 1017.7 29.5  1.022 -99.9 -99.99 -9.99
2019/08/17 14:24 EDT    0.43   0.98    9   99   12  73.8  66.4 1017.9 29.5  1.022 -99.9 -99.99 -9.99
2019/08/17 14:30 EDT    0.40   0.94    6   88   11  74.1  66.4 1017.5 29.5  1.022 -99.9 -99.99 -9.99
2019/08/17 14:36 EDT    0.37   0.88    7  104   10  74.1  66.4 1017.8 29.5  1.022 -99.9 -99.99 -9.99
2019/08/17 14:42 EDT    0.34   0.84    7  109    8  74.3  66.2 1017.8 29.5  1.022 -99.9 -99.99 -9.99
2019/08/17 14:48 EDT    0.32   0.85   10  115   13  73.9  66.2 1017.2 29.5  1.022 -99.9 -99.99 -9.99
2019/08/17 14:54 EDT    0.30   0.80    6  113   12  74.3  66.4 1017.4 29.5  1.022 -99.9 -99.99 -9.99
2019/08/17 15:00 EDT    0.29   0.80    9  130   10  73.9  66.2 1017.3 29.5  1.022 -99.9 -99.99 -9.99
2019/08/17 15:06 EDT    0.28   0.84    8  114   11  73.4  66.2 1017.5 29.5  1.022 -99.9 -99.99 -9.99
2019/08/17 15:12 EDT    0.28   0.82    8  121   10  73.2  66.4 1017.5 29.5  1.022 -99.9 -99.99 -9.99
2019/08/17 15:18 EDT    0.28   0.81    7  110   10  73.4  65.8 1017.3 29.6  1.022 -99.9 -99.99 -9.99
2019/08/17 15:24 EDT    0.28   0.77    7  102   10  73.6  66.0 1017.2 29.5  1.022 -99.9 -99.99 -9.99
2019/08/17 15:30 EDT    0.29   0.79    7  107   10  73.6  65.8 1017.2 29.6  1.022 -99.9 -99.99 -9.99
2019/08/17 15:36 EDT    0.30   0.78    7  102   10  73.6  66.0 1017.2 29.5  1.022 -99.9 -99.99 -9.99
2019/08/17 15:42 EDT    0.32   0.85    7  103   10  73.6  65.7 1017.0 29.6  1.022 -99.9 -99.99 -9.99
2019/08/17 15:48 EDT    0.33   0.86    9   97   10  73.6  66.0 1016.8 29.5  1.022 -99.9 -99.99 -9.99
2019/08/17 15:54 EDT    0.35   0.85    8  116   11  73.6  66.4 1016.9 29.5  1.022 -99.9 -99.99 -9.99
2019/08/17 16:00 EDT    0.38   0.94    6  112    9  73.8  65.8 1016.7 29.6  1.022 -99.9 -99.99 -9.99
2019/08/17 16:06 EDT    0.40   0.89    6  118   10  73.9  66.4 1016.7 29.5  1.022 -99.9 -99.99 -9.99
2019/08/17 16:12 EDT    0.43   0.96    8  119   11  73.8  65.7 1016.7 29.6  1.022 -99.9 -99.99 -9.99
2019/08/17 16:18 EDT    0.46   1.08    5  119   11  73.8  65.5 1016.7 29.6  1.022 -99.9 -99.99 -9.99
2019/08/17 16:24 EDT    0.50   1.00    7  104   11  73.8  65.3 1016.5 29.6  1.022 -99.9 -99.99 -9.99
2019/08/17 16:30 EDT    0.53   1.05    8  100   10  73.9  65.1 1016.3 29.7  1.022 -99.9 -99.99 -9.99
2019/08/17 16:36 EDT    0.57   1.13   10  110   12  73.6  65.7 1016.3 29.6  1.022 -99.9 -99.99 -9.99
2019/08/17 16:42 EDT    0.61   1.15    8  109   13  73.8  65.5 1016.0 29.5  1.022 -99.9 -99.99 -9.99
2019/08/17 16:48 EDT    0.65   1.22    8  118   11  73.9  64.8 1016.0 29.7  1.022 -99.9 -99.99 -9.99
2019/08/17 16:54 EDT    0.69   1.22    7  117   10  74.3  65.3 1016.0 29.6  1.022 -99.9 -99.99 -9.99
2019/08/17 17:00 EDT    0.74   1.24    8  109   11  74.1  65.7 1015.9 29.6  1.022 -99.9 -99.99 -9.99
2019/08/17 17:06 EDT    0.79   1.31    9   94   12  74.1  65.5 1015.8 29.6  1.022 -99.9 -99.99 -9.99
2019/08/17 17:12 EDT    0.84   1.39   11  111   13  74.1  65.8 1015.6 29.6  1.022 -99.9 -99.99 -9.99
2019/08/17 17:18 EDT    0.89   1.36   10  111   14  74.1  66.0 1015.6 29.6  1.022 -99.9 -99.99 -9.99
2019/08/17 17:24 EDT    0.94   1.52    9  118   12  74.5  66.0 1015.7 29.6  1.022 -99.9 -99.99 -9.99
2019/08/17 17:30 EDT    1.00   1.55    9  131   12  74.3  66.2 1015.7 29.6  1.022 -99.9 -99.99 -9.99
2019/08/17 17:36 EDT    1.05   1.49   11  114   13  74.1  66.2 1015.7 29.5  1.022 -99.9 -99.99 -9.99
2019/08/17 17:42 EDT    1.11   1.68    9  116   13  74.1  66.0 1015.7 29.5  1.022 -99.9 -99.99 -9.99
2019/08/17 17:48 EDT    1.17   1.71    9  119   14  74.1  65.7 1015.5 29.6  1.022 -99.9 -99.99 -9.99
2019/08/17 17:54 EDT    1.23   1.78   10  113   11  74.1  65.7 1015.3 29.5  1.022 -99.9 -99.99 -9.99
2019/08/17 18:00 EDT    1.30   1.89    8  104   15  74.1  65.7 1015.2 29.5  1.022 -99.9 -99.99 -9.99
2019/08/17 18:06 EDT    1.36   1.88   10  107   13  73.9  65.5 1015.1 29.6  1.022 -99.9 -99.99 -9.99
2019/08/17 18:12 EDT    1.43   1.98    9  102   13  74.1  65.3 1015.1 29.6  1.022 -99.9 -99.99 -9.99
2019/08/17 18:18 EDT    1.50   2.06   10  101   12  74.1  65.3 1014.9 29.6  1.022 -99.9 -99.99 -9.99
2019/08/17 18:24 EDT    1.57   2.17    8  109   11  74.3  65.5 1015.1 29.6  1.022 -99.9 -99.99 -9.99
2019/08/17 18:30 EDT    1.64   2.21    6  101   12  74.3  65.5 1015.3 29.6  1.022 -99.9 -99.99 -9.99
2019/08/17 18:36 EDT    1.71   2.31    7  109   10  74.5  65.7 1015.4 29.6  1.022 -99.9 -99.99 -9.99
2019/08/17 18:42 EDT    1.78   2.46    7  109   12  74.5  65.7 1015.4 29.6  1.022 -99.9 -99.99 -9.99
2019/08/17 18:48 EDT    1.86   2.49    7  116   10  74.3  65.5 1015.5 29.5  1.022 -99.9 -99.99 -9.99
2019/08/17 18:54 EDT    1.93   2.60    9  101   12  74.3  65.7 1015.5 29.6  1.022 -99.9 -99.99 -9.99
2019/08/17 19:00 EDT    2.01   2.67    7  107   12  74.3  65.7 1015.5 29.6  1.022 -99.9 -99.99 -9.99
2019/08/17 19:06 EDT    2.08   2.72   10  111   11  74.3  65.5 1015.6 29.6  1.022 -99.9 -99.99 -9.99
2019/08/17 19:12 EDT    2.16   2.82    6  103   11  74.3  65.7 1015.6 29.6  1.022 -99.9 -99.99 -9.99
2019/08/17 19:18 EDT    2.23 -99.99 -999 -999 -999 -99.9 -99.9 -999.9 -9.9 -9.999 -99.9 -99.99 -9.99
2019/08/17 19:24 EDT    2.31 -99.99 -999 -999 -999 -99.9 -99.9 -999.9 -9.9 -9.999 -99.9 -99.99 -9.99
2019/08/17 19:30 EDT    2.39 -99.99 -999 -999 -999 -99.9 -99.9 -999.9 -9.9 -9.999 -99.9 -99.99 -9.99

Revised: 08/08/2018
NOAA / National Ocean Service
Web site owner: Center for Operational Oceanographic Products and Services